Observation data for Panhandle on 11/19/2019      Previous  Date       Current Mesonet Observations  Soil Data  Daily Summary Page  Observations in Plain Language
KPA1 190600Z 22008KT 07/01 A3001 RMK A01 T00710011  RH  066%=      5-min Rain = 0
KPA1 190601Z 22008KT 07/01 A3001 RMK A01 T00650010  RH  068%=      5-min Rain = 0
KPA1 190602Z 23007KT 06/01 A3001 RMK A01 T00620012  RH  071%=      5-min Rain = 0
KPA1 190603Z 23006KT 06/01 A3001 RMK A01 T00600012  RH  071%=      5-min Rain = 0
KPA1 190604Z 23006KT 06/01 A3001 RMK A01 T00600011  RH  071%=      5-min Rain = 0
KPA1 190605Z 24006KT 06/01 A3001 RMK A01 T00610009  RH  069%=      5-min Rain = 0
KPA1 190606Z 24005KT 06/01 A3001 RMK A01 T00610007  RH  068%=      5-min Rain = 0
KPA1 190607Z 25005KT 06/01 A3001 RMK A01 T00610006  RH  068%=      5-min Rain = 0
KPA1 190608Z 25005KT 06/01 A3001 RMK A01 T00610006  RH  068%=      5-min Rain = 0
KPA1 190609Z 25005KT 06/01 A3001 RMK A01 T00610005  RH  067%=      5-min Rain = 0
KPA1 190610Z 25004KT 06/00 A3001 RMK A01 T00600004  RH  067%=      5-min Rain = 0
KPA1 190611Z 26002KT 06/00 A3001 RMK A01 T00590004  RH  067%=      5-min Rain = 0
KPA1 190612Z 27002KT 06/00 A3001 RMK A01 T00590003  RH  068%=      5-min Rain = 0
KPA1 190613Z 26002KT 06/00 A3001 RMK A01 T00580004  RH  068%=      5-min Rain = 0
KPA1 190614Z 25003KT 06/00 A3001 RMK A01 T00570004  RH  068%=      5-min Rain = 0
KPA1 190615Z 25003KT 06/00 A3001 RMK A01 T00570002  RH  068%=      5-min Rain = 0
KPA1 190616Z 24003KT 06/00 A3001 RMK A01 T00570002  RH  068%=      5-min Rain = 0
KPA1 190617Z 24003KT 06/00 A3001 RMK A01 T00580001  RH  067%=      5-min Rain = 0
KPA1 190618Z 23003KT 06/00 A3001 RMK A01 T00590001  RH  066%=      5-min Rain = 0
KPA1 190619Z 24003KT 06/00 A3001 RMK A01 T00600001  RH  066%=      5-min Rain = 0
KPA1 190620Z 24004KT 06/00 A3001 RMK A01 T00600001  RH  066%=      5-min Rain = 0
KPA1 190621Z 25004KT 06/00 A3001 RMK A01 T00600001  RH  066%=      5-min Rain = 0
KPA1 190622Z 24003KT 06/00 A3001 RMK A01 T00600001  RH  066%=      5-min Rain = 0
KPA1 190623Z 24003KT 06/00 A3001 RMK A01 T00600000  RH  066%=      5-min Rain = 0
KPA1 190624Z 24003KT 06/00 A3001 RMK A01 T00600001  RH  066%=      5-min Rain = 0
KPA1 190625Z 23003KT 06/00 A3001 RMK A01 T00600001  RH  066%=      5-min Rain = 0
KPA1 190626Z 23002KT 06/00 A3001 RMK A01 T00600002  RH  066%=      5-min Rain = 0
KPA1 190627Z 23002KT 06/00 A30 RMK A01 T00600004  RH  067%=      5-min Rain = 0
KPA1 190628Z 23002KT 06/01 A30 RMK A01 T00610006  RH  068%=      5-min Rain = 0
KPA1 190629Z 22002KT 06/01 A30 RMK A01 T00600008  RH  069%=      5-min Rain = 0
KPA1 190630Z 22002KT 06/01 A30 RMK A01 T00590007  RH  069%=      5-min Rain = 0
KPA1 190631Z 22003KT 06/01 A30 RMK A01 T00590007  RH  069%=      5-min Rain = 0
KPA1 190632Z 22004KT 06/01 A30 RMK A01 T00590007  RH  069%=      5-min Rain = 0
KPA1 190633Z 22005KT 06/01 A30 RMK A01 T00590007  RH  069%=      5-min Rain = 0
KPA1 190634Z 23005KT 06/01 A30 RMK A01 T00590006  RH  069%=      5-min Rain = 0
KPA1 190635Z 23005KT 06/00 A30 RMK A01 T00580004  RH  068%=      5-min Rain = 0
KPA1 190636Z 22004KT 06/00 A30 RMK A01 T00580003  RH  068%=      5-min Rain = 0
KPA1 190637Z 21003KT 06/00 A30 RMK A01 T00590003  RH  067%=      5-min Rain = 0
KPA1 190638Z 21003KT 06/00 A30 RMK A01 T00580002  RH  067%=      5-min Rain = 0
KPA1 190639Z 20003KT 06/00 A30 RMK A01 T00550001  RH  068%=      5-min Rain = 0
KPA1 190640Z 20003KT 05/00 A30 RMK A01 T00530003  RH  070%=      5-min Rain = 0
KPA1 190641Z 21002KT 05/01 A30 RMK A01 T00520006  RH  072%=      5-min Rain = 0
KPA1 190642Z 21003KT 05/01 A30 RMK A01 T00520007  RH  073%=      5-min Rain = 0
KPA1 190643Z 22003KT 05/01 A30 RMK A01 T00510006  RH  072%=      5-min Rain = 0
KPA1 190644Z 22003KT 05/00 A30 RMK A01 T00500003  RH  072%=      5-min Rain = 0
KPA1 190645Z 21004KT 05/00 A30 RMK A01 T00480001  RH  072%=      5-min Rain = 0
KPA1 190646Z 21004KT 05/00 A30 RMK A01 T004700-0  RH  072%=      5-min Rain = 0
KPA1 190647Z 22004KT 05/00 A30 RMK A01 T004500-0  RH  072%=      5-min Rain = 0
KPA1 190648Z 22005KT 05/00 A30 RMK A01 T00450004  RH  074%=      5-min Rain = 0
KPA1 190649Z 22005KT 05/01 A30 RMK A01 T00470007  RH  075%=      5-min Rain = 0
KPA1 190650Z 22004KT 05/01 A30 RMK A01 T00500010  RH  075%=      5-min Rain = 0
KPA1 190651Z 21004KT 05/01 A30 RMK A01 T00520011  RH  075%=      5-min Rain = 0
KPA1 190652Z 21004KT 05/01 A30 RMK A01 T00520010  RH  074%=      5-min Rain = 0
KPA1 190653Z 21003KT 05/01 A30 RMK A01 T00510007  RH  073%=      5-min Rain = 0
KPA1 190654Z 21003KT 05/01 A30 RMK A01 T00500007  RH  074%=      5-min Rain = 0
KPA1 190655Z 21003KT 05/01 A30 RMK A01 T00480005  RH  074%=      5-min Rain = 0
KPA1 190656Z 21003KT 05/00 A30 RMK A01 T00470004  RH  074%=      5-min Rain = 0
KPA1 190657Z 21003KT 05/00 A30 RMK A01 T00450004  RH  074%=      5-min Rain = 0
KPA1 190658Z 21003KT 05/00 A30 RMK A01 T00450004  RH  075%=      5-min Rain = 0
KPA1 190659Z 21003KT 04/00 A30 RMK A01 T00430002  RH  074%=      5-min Rain = 0
KPA1 190700Z 21002KT 04/00 A30 RMK A01 T004300-0  RH  074%=      5-min Rain = 0
KPA1 190701Z 21003KT 04/M00 A30 RMK A01 T00421001  RH  073%=      5-min Rain = 0
KPA1 190702Z 21003KT 04/M00 A30 RMK A01 T00421001  RH  073%=      5-min Rain = 0
KPA1 190703Z 21003KT 04/M00 A30 RMK A01 T00431001  RH  073%=      5-min Rain = 0
KPA1 190704Z 21003KT 04/M00 A30 RMK A01 T00421002  RH  073%=      5-min Rain = 0
KPA1 190705Z 21002KT 04/M00 A30 RMK A01 T00421002  RH  073%=      5-min Rain = 0
KPA1 190706Z 20003KT 04/M00 A30 RMK A01 T00411002  RH  073%=      5-min Rain = 0
KPA1 190707Z 19002KT 04/M00 A30 RMK A01 T00411002  RH  074%=      5-min Rain = 0
KPA1 190708Z 19002KT 04/M00 A2999 RMK A01 T00411002  RH  074%=      5-min Rain = 0
KPA1 190709Z 18003KT 04/M00 A2999 RMK A01 T00411001  RH  074%=      5-min Rain = 0
KPA1 190710Z 18002KT 04/M00 A2999 RMK A01 T00411002  RH  073%=      5-min Rain = 0
KPA1 190711Z 19002KT 04/M00 A2999 RMK A01 T00411003  RH  073%=      5-min Rain = 0
KPA1 190712Z 19003KT 04/M00 A2999 RMK A01 T00411003  RH  073%=      5-min Rain = 0
KPA1 190713Z 19003KT 04/M00 A2999 RMK A01 T00411003  RH  073%=      5-min Rain = 0
KPA1 190714Z 19003KT 04/M00 A2999 RMK A01 T00411003  RH  073%=      5-min Rain = 0
KPA1 190715Z 19003KT 04/M00 A2999 RMK A01 T00401004  RH  073%=      5-min Rain = 0
KPA1 190716Z 19003KT 04/M00 A2999 RMK A01 T00401004  RH  073%=      5-min Rain = 0
KPA1 190717Z 20003KT 04/M00 A2999 RMK A01 T00391004  RH  074%=      5-min Rain = 0
KPA1 190718Z 20003KT 04/M00 A2999 RMK A01 T00381003  RH  074%=      5-min Rain = 0
KPA1 190719Z 20002KT 04/M00 A2999 RMK A01 T00381002  RH  075%=      5-min Rain = 0
KPA1 190720Z 20002KT 04/M00 A2999 RMK A01 T00381001  RH  076%=      5-min Rain = 0
KPA1 190721Z 20002KT 04/M00 A2999 RMK A01 T00381001  RH  076%=      5-min Rain = 0
KPA1 190722Z 20002KT 04/00 A2999 RMK A01 T003800-0  RH  076%=      5-min Rain = 0
KPA1 190723Z 20002KT 04/00 A30 RMK A01 T003900-0  RH  076%=      5-min Rain = 0
KPA1 190724Z 20002KT 04/00 A30 RMK A01 T00390001  RH  076%=      5-min Rain = 0
KPA1 190725Z 20002KT 04/00 A30 RMK A01 T00400003  RH  077%=      5-min Rain = 0
KPA1 190726Z 21002KT 04/01 A30 RMK A01 T00400005  RH  078%=      5-min Rain = 0
KPA1 190727Z 22002KT 04/00 A30 RMK A01 T00400004  RH  077%=      5-min Rain = 0
KPA1 190728Z 22002KT 04/00 A30 RMK A01 T00410004  RH  077%=      5-min Rain = 0
KPA1 190729Z 22002KT 04/01 A30 RMK A01 T00420006  RH  077%=      5-min Rain = 0
KPA1 190730Z 23002KT 04/01 A30 RMK A01 T00440007  RH  077%=      5-min Rain = 0
KPA1 190731Z 23002KT 05/01 A30 RMK A01 T00450007  RH  076%=      5-min Rain = 0
KPA1 190732Z 23002KT 05/01 A3001 RMK A01 T00460008  RH  076%=      5-min Rain = 0
KPA1 190733Z 24002KT 05/01 A3001 RMK A01 T00490009  RH  075%=      5-min Rain = 0
KPA1 190734Z 24003KT 05/01 A3001 RMK A01 T00510009  RH  074%=      5-min Rain = 0
KPA1 190735Z 24003KT 05/01 A3001 RMK A01 T00520008  RH  073%=      5-min Rain = 0
KPA1 190736Z 24003KT 05/01 A3001 RMK A01 T00530006  RH  072%=      5-min Rain = 0
KPA1 190737Z 24003KT 05/00 A3001 RMK A01 T00530004  RH  071%=      5-min Rain = 0
KPA1 190738Z 24003KT 05/00 A3001 RMK A01 T00530003  RH  070%=      5-min Rain = 0
KPA1 190739Z 24003KT 05/00 A3001 RMK A01 T00510001  RH  070%=      5-min Rain = 0
KPA1 190740Z 23004KT 05/00 A3001 RMK A01 T004800-0  RH  071%=      5-min Rain = 0
KPA1 190741Z 23004KT 05/M00 A3001 RMK A01 T00451001  RH  072%=      5-min Rain = 0
KPA1 190742Z 23003KT 04/M00 A3001 RMK A01 T00431002  RH  073%=      5-min Rain = 0
KPA1 190743Z 23002KT 04/M00 A3001 RMK A01 T00411003  RH  073%=      5-min Rain = 0
KPA1 190744Z 23002KT 04/M00 A3001 RMK A01 T00401003  RH  074%=      5-min Rain = 0
KPA1 190745Z 23002KT 04/M00 A3001 RMK A01 T00391001  RH  075%=      5-min Rain = 0
KPA1 190746Z 22002KT 04/M00 A3001 RMK A01 T00381001  RH  076%=      5-min Rain = 0
KPA1 190747Z 23002KT 04/00 A3001 RMK A01 T003800-0  RH  076%=      5-min Rain = 0
KPA1 190748Z 23002KT 04/M00 A3001 RMK A01 T00381001  RH  076%=      5-min Rain = 0
KPA1 190749Z 23003KT 04/M00 A3001 RMK A01 T00391001  RH  075%=      5-min Rain = 0
KPA1 190750Z 23003KT 04/M00 A3001 RMK A01 T00401001  RH  075%=      5-min Rain = 0
KPA1 190751Z 23003KT 04/00 A3001 RMK A01 T00410000  RH  075%=      5-min Rain = 0
KPA1 190752Z 23003KT 04/00 A3001 RMK A01 T00430000  RH  074%=      5-min Rain = 0
KPA1 190753Z 22003KT 05/00 A3001 RMK A01 T00460001  RH  072%=      5-min Rain = 0
KPA1 190754Z 22002KT 05/M00 A3001 RMK A01 T00491001  RH  070%=      5-min Rain = 0
KPA1 190755Z 22002KT 05/M00 A3001 RMK A01 T00511002  RH  069%=      5-min Rain = 0
KPA1 190756Z 22002KT 05/M00 A3001 RMK A01 T00511004  RH  068%=      5-min Rain = 0
KPA1 190757Z 22002KT 05/M01 A3001 RMK A01 T00501005  RH  068%=      5-min Rain = 0
KPA1 190758Z 22001KT 05/M01 A3001 RMK A01 T00491005  RH  068%=      5-min Rain = 0
KPA1 190759Z 22001KT 05/M01 A3001 RMK A01 T00491005  RH  068%=      5-min Rain = 0
KPA1 190800Z 22000KT 05/M01 A3001 RMK A01 T00481005  RH  068%=      5-min Rain = 0
KPA1 190801Z 00000KT 05/M01 A3001 RMK A01 T00481005  RH  069%=      5-min Rain = 0
KPA1 190802Z 22000KT 05/M01 A3001 RMK A01 T00471005  RH  069%=      5-min Rain = 0
KPA1 190803Z 22001KT 05/M01 A3001 RMK A01 T00451006  RH  069%=      5-min Rain = 0
KPA1 190804Z 22002KT 04/M01 A3001 RMK A01 T00431008  RH  070%=      5-min Rain = 0
KPA1 190805Z 22001KT 04/M01 A3001 RMK A01 T00401009  RH  070%=      5-min Rain = 0
KPA1 190806Z 22001KT 04/M01 A3001 RMK A01 T00381008  RH  072%=      5-min Rain = 0
KPA1 190807Z 22001KT 04/M01 A3001 RMK A01 T00361008  RH  073%=      5-min Rain = 0
KPA1 190808Z 22001KT 04/M01 A3001 RMK A01 T00361007  RH  073%=      5-min Rain = 0
KPA1 190809Z 22001KT 04/M01 A3001 RMK A01 T00381006  RH  073%=      5-min Rain = 0
KPA1 190810Z 22001KT 04/M00 A3001 RMK A01 T00411004  RH  073%=      5-min Rain = 0
KPA1 190811Z 22000KT 04/M01 A3001 RMK A01 T00411006  RH  071%=      5-min Rain = 0
KPA1 190812Z 00000KT 04/M01 A3001 RMK A01 T00401008  RH  071%=      5-min Rain = 0
KPA1 190813Z 00000KT 04/M01 A3001 RMK A01 T00371009  RH  072%=      5-min Rain = 0
KPA1 190814Z 00000KT 04/M01 A3001 RMK A01 T00361009  RH  073%=      5-min Rain = 0
KPA1 190815Z 00000KT 04/M01 A3001 RMK A01 T00351008  RH  073%=      5-min Rain = 0
KPA1 190816Z 00000KT 04/M01 A3001 RMK A01 T00361007  RH  074%=      5-min Rain = 0
KPA1 190817Z 00000KT 04/M01 A3001 RMK A01 T00351007  RH  074%=      5-min Rain = 0
KPA1 190818Z 00000KT 04/M01 A3001 RMK A01 T00351007  RH  074%=      5-min Rain = 0
KPA1 190819Z 00000KT 04/M01 A3001 RMK A01 T00351007  RH  074%=      5-min Rain = 0
KPA1 190820Z 22000KT 03/M01 A3001 RMK A01 T00341007  RH  074%=      5-min Rain = 0
KPA1 190821Z 22000KT 03/M01 A3001 RMK A01 T00331008  RH  074%=      5-min Rain = 0
KPA1 190822Z 22001KT 03/M01 A3001 RMK A01 T00331008  RH  075%=      5-min Rain = 0
KPA1 190823Z 23001KT 03/M01 A3001 RMK A01 T00321008  RH  075%=      5-min Rain = 0
KPA1 190824Z 23001KT 03/M01 A3001 RMK A01 T00321007  RH  076%=      5-min Rain = 0
KPA1 190825Z 23001KT 03/M01 A3001 RMK A01 T00321006  RH  076%=      5-min Rain = 0
KPA1 190826Z 23001KT 03/M01 A3001 RMK A01 T00321005  RH  076%=      5-min Rain = 0
KPA1 190827Z 23001KT 03/M01 A3001 RMK A01 T00341005  RH  076%=      5-min Rain = 0
KPA1 190828Z 23001KT 03/M01 A3001 RMK A01 T00341006  RH  075%=      5-min Rain = 0
KPA1 190829Z 23001KT 04/M01 A3001 RMK A01 T00361005  RH  074%=      5-min Rain = 0
KPA1 190830Z 23001KT 04/M01 A3001 RMK A01 T00371005  RH  074%=      5-min Rain = 0
KPA1 190831Z 23002KT 04/M01 A3001 RMK A01 T00381005  RH  073%=      5-min Rain = 0
KPA1 190832Z 22002KT 04/M00 A3001 RMK A01 T00401004  RH  073%=      5-min Rain = 0
KPA1 190833Z 22002KT 04/M00 A3001 RMK A01 T00431003  RH  072%=      5-min Rain = 0
KPA1 190834Z 22002KT 05/M00 A3001 RMK A01 T00461002  RH  071%=      5-min Rain = 0
KPA1 190835Z 22001KT 05/M00 A3001 RMK A01 T00481003  RH  069%=      5-min Rain = 0
KPA1 190836Z 22001KT 05/M00 A3001 RMK A01 T00491004  RH  069%=      5-min Rain = 0
KPA1 190837Z 22000KT 05/M00 A3001 RMK A01 T00491004  RH  068%=      5-min Rain = 0
KPA1 190838Z 00000KT 05/M01 A3001 RMK A01 T00481006  RH  068%=      5-min Rain = 0
KPA1 190839Z 00000KT 05/M01 A3001 RMK A01 T00451008  RH  068%=      5-min Rain = 0
KPA1 190840Z 00000KT 04/M01 A3001 RMK A01 T00411010  RH  069%=      5-min Rain = 0
KPA1 190841Z 22000KT 04/M01 A3001 RMK A01 T00381010  RH  071%=      5-min Rain = 0
KPA1 190842Z 23001KT 04/M01 A3001 RMK A01 T00371008  RH  073%=      5-min Rain = 0
KPA1 190843Z 23001KT 04/M01 A3001 RMK A01 T00361007  RH  074%=      5-min Rain = 0
KPA1 190844Z 23001KT 04/M01 A3001 RMK A01 T00351007  RH  074%=      5-min Rain = 0
KPA1 190845Z 23000KT 03/M01 A3001 RMK A01 T00341007  RH  075%=      5-min Rain = 0
KPA1 190846Z 23001KT 03/M01 A3001 RMK A01 T00321008  RH  075%=      5-min Rain = 0
KPA1 190847Z 23001KT 03/M01 A3001 RMK A01 T00311009  RH  075%=      5-min Rain = 0
KPA1 190848Z 23001KT 03/M01 A3001 RMK A01 T00301010  RH  075%=      5-min Rain = 0
KPA1 190849Z 23001KT 03/M01 A3001 RMK A01 T00291010  RH  076%=      5-min Rain = 0
KPA1 190850Z 23001KT 03/M01 A3001 RMK A01 T00281010  RH  077%=      5-min Rain = 0
KPA1 190851Z 23002KT 03/M01 A3001 RMK A01 T00271008  RH  078%=      5-min Rain = 0
KPA1 190852Z 23002KT 03/M01 A3001 RMK A01 T00281006  RH  079%=      5-min Rain = 0
KPA1 190853Z 23002KT 03/M01 A3001 RMK A01 T00291005  RH  079%=      5-min Rain = 0
KPA1 190854Z 23001KT 03/M01 A3001 RMK A01 T00291005  RH  078%=      5-min Rain = 0
KPA1 190855Z 23001KT 03/M00 A3001 RMK A01 T00311002  RH  079%=      5-min Rain = 0
KPA1 190856Z 23001KT 04/00 A3001 RMK A01 T00350001  RH  079%=      5-min Rain = 0
KPA1 190857Z 23001KT 04/00 A3001 RMK A01 T003600-0  RH  077%=      5-min Rain = 0
KPA1 190858Z 23001KT 04/M00 A3001 RMK A01 T00361001  RH  077%=      5-min Rain = 0
KPA1 190859Z 23001KT 04/M00 A3001 RMK A01 T00361003  RH  076%=      5-min Rain = 0
KPA1 190900Z 23001KT 04/M00 A3001 RMK A01 T00361004  RH  075%=      5-min Rain = 0
KPA1 190901Z 23001KT 04/M00 A3001 RMK A01 T00351004  RH  075%=      5-min Rain = 0
KPA1 190902Z 23001KT 03/M00 A3001 RMK A01 T00341004  RH  076%=      5-min Rain = 0
KPA1 190903Z 23001KT 03/M00 A3001 RMK A01 T00341003  RH  077%=      5-min Rain = 0
KPA1 190904Z 23001KT 04/M00 A3001 RMK A01 T00351002  RH  077%=      5-min Rain = 0
KPA1 190905Z 23001KT 04/M00 A3001 RMK A01 T00351002  RH  076%=      5-min Rain = 0
KPA1 190906Z 22002KT 04/M00 A3001 RMK A01 T00351003  RH  076%=      5-min Rain = 0
KPA1 190907Z 22002KT 04/M00 A3001 RMK A01 T00351002  RH  076%=      5-min Rain = 0
KPA1 190908Z 22002KT 04/M00 A3001 RMK A01 T00361002  RH  076%=      5-min Rain = 0
KPA1 190909Z 22002KT 04/M00 A3001 RMK A01 T00361002  RH  076%=      5-min Rain = 0
KPA1 190910Z 21002KT 04/M00 A30 RMK A01 T00361003  RH  076%=      5-min Rain = 0
KPA1 190911Z 20002KT 04/M00 A30 RMK A01 T00361003  RH  076%=      5-min Rain = 0
KPA1 190912Z 20002KT 04/M00 A30 RMK A01 T00361003  RH  076%=      5-min Rain = 0
KPA1 190913Z 19002KT 04/M00 A30 RMK A01 T00351003  RH  076%=      5-min Rain = 0
KPA1 190914Z 19002KT 04/M00 A30 RMK A01 T00351004  RH  076%=      5-min Rain = 0
KPA1 190915Z 18002KT 04/M00 A30 RMK A01 T00351003  RH  076%=      5-min Rain = 0
KPA1 190916Z 17002KT 04/M00 A30 RMK A01 T00351002  RH  077%=      5-min Rain = 0
KPA1 190917Z 16002KT 04/00 A30 RMK A01 T00360000  RH  078%=      5-min Rain = 0
KPA1 190918Z 15003KT 04/00 A30 RMK A01 T00370003  RH  078%=      5-min Rain = 0
KPA1 190919Z 14003KT 04/01 A30 RMK A01 T00400005  RH  078%=      5-min Rain = 0
KPA1 190920Z 13003KT 04/00 A30 RMK A01 T00410004  RH  077%=      5-min Rain = 0
KPA1 190921Z 13004KT 04/00 A30 RMK A01 T00390004  RH  078%=      5-min Rain = 0
KPA1 190922Z 13005KT 04/00 A30 RMK A01 T00350004  RH  080%=      5-min Rain = 0
KPA1 190923Z 13005KT 03/01 A2999 RMK A01 T00330006  RH  083%=      5-min Rain = 0
KPA1 190924Z 13006KT 03/01 A2999 RMK A01 T00320006  RH  083%=      5-min Rain = 0
KPA1 190925Z 13007KT 03/00 A2999 RMK A01 T00300004  RH  083%=      5-min Rain = 0
KPA1 190926Z 13008KT 03/00 A2999 RMK A01 T00300003  RH  082%=      5-min Rain = 0
KPA1 190927Z 13008KT 03/00 A2999 RMK A01 T00300001  RH  081%=      5-min Rain = 0
KPA1 190928Z 13008KT 03/00 A2999 RMK A01 T00310001  RH  081%=      5-min Rain = 0
KPA1 190929Z 13008KT 03/00 A2999 RMK A01 T00310002  RH  081%=      5-min Rain = 0
KPA1 190930Z 13008KT 03/00 A2999 RMK A01 T00320002  RH  081%=      5-min Rain = 0
KPA1 190931Z 13008KT 03/00 A2999 RMK A01 T00320000  RH  080%=      5-min Rain = 0
KPA1 190932Z 13007KT 03/M00 A2999 RMK A01 T00311001  RH  079%=      5-min Rain = 0
KPA1 190933Z 13007KT 03/M00 A2999 RMK A01 T00301002  RH  079%=      5-min Rain = 0
KPA1 190934Z 14007KT 03/M00 A2999 RMK A01 T00301001  RH  080%=      5-min Rain = 0
KPA1 190935Z 13007KT 03/00 A2999 RMK A01 T00310001  RH  081%=      5-min Rain = 0
KPA1 190936Z 13007KT 03/00 A2999 RMK A01 T00330002  RH  080%=      5-min Rain = 0
KPA1 190937Z 13007KT 04/00 A2999 RMK A01 T00350003  RH  079%=      5-min Rain = 0
KPA1 190938Z 13006KT 04/01 A2999 RMK A01 T00390006  RH  079%=      5-min Rain = 0
KPA1 190939Z 13006KT 04/01 A2999 RMK A01 T00420006  RH  077%=      5-min Rain = 0
KPA1 190940Z 13003KT 04/00 A2999 RMK A01 T00430004  RH  076%=      5-min Rain = 0
KPA1 190941Z 13002KT 04/01 A2999 RMK A01 T00430005  RH  076%=      5-min Rain = 0
KPA1 190942Z 13002KT 04/00 A2999 RMK A01 T00430003  RH  075%=      5-min Rain = 0
KPA1 190943Z 13004KT 04/00 A2999 RMK A01 T00420000  RH  074%=      5-min Rain = 0
KPA1 190944Z 13004KT 04/00 A2999 RMK A01 T00420001  RH  075%=      5-min Rain = 0
KPA1 190945Z 13005KT 04/00 A2999 RMK A01 T00410001  RH  075%=      5-min Rain = 0
KPA1 190946Z 13005KT 04/00 A2999 RMK A01 T00420002  RH  075%=      5-min Rain = 0
KPA1 190947Z 13006KT 04/00 A2999 RMK A01 T00430004  RH  075%=      5-min Rain = 0
KPA1 190948Z 13006KT 05/01 A2999 RMK A01 T00450005  RH  075%=      5-min Rain = 0
KPA1 190949Z 13006KT 05/01 A2999 RMK A01 T00470006  RH  075%=      5-min Rain = 0
KPA1 190950Z 14005KT 05/01 A2999 RMK A01 T00500007  RH  074%=      5-min Rain = 0
KPA1 190951Z 14004KT 05/01 A2999 RMK A01 T00530007  RH  072%=      5-min Rain = 0
KPA1 190952Z 14003KT 05/01 A2999 RMK A01 T00540005  RH  071%=      5-min Rain = 0
KPA1 190953Z 14004KT 05/00 A2999 RMK A01 T00540003  RH  070%=      5-min Rain = 0
KPA1 190954Z 13005KT 05/00 A2999 RMK A01 T00530001  RH  070%=      5-min Rain = 0
KPA1 190955Z 13005KT 05/00 A2999 RMK A01 T00510001  RH  070%=      5-min Rain = 0
KPA1 190956Z 13005KT 05/00 A2999 RMK A01 T00500001  RH  071%=      5-min Rain = 0
KPA1 190957Z 13006KT 05/00 A2998 RMK A01 T00500002  RH  071%=      5-min Rain = 0
KPA1 190958Z 13006KT 05/00 A2998 RMK A01 T00490002  RH  072%=      5-min Rain = 0
KPA1 190959Z 13007KT 05/00 A2998 RMK A01 T00480002  RH  072%=      5-min Rain = 0
KPA1 191000Z 13007KT 05/00 A2998 RMK A01 T00480003  RH  073%=      5-min Rain = 0
KPA1 191001Z 13008KT 05/01 A2998 RMK A01 T00500007  RH  073%=      5-min Rain = 0
KPA1 191002Z 13009KT 05/01 A2998 RMK A01 T00540010  RH  073%=      5-min Rain = 0
KPA1 191003Z 13008KT 06/01 A2998 RMK A01 T00580012  RH  072%=      5-min Rain = 0
KPA1 191004Z 13008KT 06/01 A2998 RMK A01 T00620013  RH  071%=      5-min Rain = 0
KPA1 191005Z 13008KT 06/01 A2998 RMK A01 T00640013  RH  070%=      5-min Rain = 0
KPA1 191006Z 13008KT 07/01 A2998 RMK A01 T00670014  RH  069%=      5-min Rain = 0
KPA1 191007Z 13007KT 07/02 A2998 RMK A01 T00690015  RH  068%=      5-min Rain = 0
KPA1 191008Z 14007KT 07/02 A2998 RMK A01 T00700016  RH  068%=      5-min Rain = 0
KPA1 191009Z 14006KT 07/02 A2998 RMK A01 T00720017  RH  068%=      5-min Rain = 0
KPA1 191010Z 14005KT 07/01 A2998 RMK A01 T00700013  RH  067%=      5-min Rain = 0
KPA1 191011Z 14005KT 07/01 A2998 RMK A01 T00650007  RH  066%=      5-min Rain = 0
KPA1 191012Z 14005KT 06/01 A2998 RMK A01 T00610005  RH  067%=      5-min Rain = 0
KPA1 191013Z 13005KT 06/01 A2998 RMK A01 T00580005  RH  069%=      5-min Rain = 0
KPA1 191014Z 13004KT 06/01 A2998 RMK A01 T00570006  RH  069%=      5-min Rain = 0
KPA1 191015Z 13004KT 06/01 A2998 RMK A01 T00570006  RH  070%=      5-min Rain = 0
KPA1 191016Z 12005KT 06/01 A2998 RMK A01 T00550006  RH  071%=      5-min Rain = 0
KPA1 191017Z 13006KT 06/01 A2998 RMK A01 T00550007  RH  071%=      5-min Rain = 0
KPA1 191018Z 13007KT 06/01 A2998 RMK A01 T00550009  RH  072%=      5-min Rain = 0
KPA1 191019Z 13007KT 06/01 A2998 RMK A01 T00590011  RH  071%=      5-min Rain = 0
KPA1 191020Z 13008KT 06/01 A2998 RMK A01 T00620011  RH  070%=      5-min Rain = 0
KPA1 191021Z 13007KT 06/01 A2998 RMK A01 T00630011  RH  069%=      5-min Rain = 0
KPA1 191022Z 13007KT 06/01 A2998 RMK A01 T00640011  RH  069%=      5-min Rain = 0
KPA1 191023Z 13007KT 06/01 A2998 RMK A01 T00640011  RH  069%=      5-min Rain = 0
KPA1 191024Z 13007KT 07/01 A2998 RMK A01 T00650011  RH  068%=      5-min Rain = 0
KPA1 191025Z 13007KT 07/01 A2998 RMK A01 T00650011  RH  068%=      5-min Rain = 0
KPA1 191026Z 13008KT 07/01 A2998 RMK A01 T00650011  RH  068%=      5-min Rain = 0
KPA1 191027Z 13008KT 07/01 A2997 RMK A01 T00660012  RH  068%=      5-min Rain = 0
KPA1 191028Z 13008KT 07/01 A2997 RMK A01 T00670012  RH  068%=      5-min Rain = 0
KPA1 191029Z 13008KT 07/01 A2997 RMK A01 T00680012  RH  068%=      5-min Rain = 0
KPA1 191030Z 14008KT 07/01 A2997 RMK A01 T00680012  RH  068%=      5-min Rain = 0
KPA1 191031Z 13008KT 07/01 A2997 RMK A01 T00690012  RH  067%=      5-min Rain = 0
KPA1 191032Z 14006KT 07/01 A2997 RMK A01 T00690013  RH  067%=      5-min Rain = 0
KPA1 191033Z 13006KT 07/01 A2997 RMK A01 T00700013  RH  067%=      5-min Rain = 0
KPA1 191034Z 13006KT 07/01 A2997 RMK A01 T00690013  RH  067%=      5-min Rain = 0
KPA1 191035Z 13006KT 07/01 A2997 RMK A01 T00670011  RH  067%=      5-min Rain = 0
KPA1 191036Z 13005KT 06/01 A2997 RMK A01 T00640008  RH  067%=      5-min Rain = 0
KPA1 191037Z 13005KT 06/01 A2997 RMK A01 T00620005  RH  067%=      5-min Rain = 0
KPA1 191038Z 13006KT 06/00 A2997 RMK A01 T00580004  RH  068%=      5-min Rain = 0
KPA1 191039Z 13004KT 06/00 A2998 RMK A01 T00570004  RH  069%=      5-min Rain = 0
KPA1 191040Z 14003KT 05/00 A2998 RMK A01 T00540003  RH  069%=      5-min Rain = 0
KPA1 191041Z 14003KT 05/00 A2998 RMK A01 T00510001  RH  070%=      5-min Rain = 0
KPA1 191042Z 16003KT 05/00 A2998 RMK A01 T00490002  RH  071%=      5-min Rain = 0
KPA1 191043Z 17003KT 05/00 A2998 RMK A01 T00480003  RH  072%=      5-min Rain = 0
KPA1 191044Z 17003KT 05/01 A2998 RMK A01 T00490005  RH  073%=      5-min Rain = 0
KPA1 191045Z 17003KT 05/01 A2998 RMK A01 T00500007  RH  074%=      5-min Rain = 0
KPA1 191046Z 17004KT 05/01 A2998 RMK A01 T00520010  RH  074%=      5-min Rain = 0
KPA1 191047Z 16004KT 05/01 A2998 RMK A01 T00510010  RH  075%=      5-min Rain = 0
KPA1 191048Z 16004KT 05/01 A2997 RMK A01 T00510011  RH  075%=      5-min Rain = 0
KPA1 191049Z 16004KT 05/01 A2997 RMK A01 T00510011  RH  075%=      5-min Rain = 0
KPA1 191050Z 17004KT 05/01 A2997 RMK A01 T00500011  RH  076%=      5-min Rain = 0
KPA1 191051Z 17004KT 05/01 A2997 RMK A01 T00490010  RH  076%=      5-min Rain = 0
KPA1 191052Z 17004KT 05/01 A2997 RMK A01 T00480011  RH  077%=      5-min Rain = 0
KPA1 191053Z 18004KT 05/01 A2997 RMK A01 T00480011  RH  077%=      5-min Rain = 0
KPA1 191054Z 19004KT 05/01 A2997 RMK A01 T00480013  RH  078%=      5-min Rain = 0
KPA1 191055Z 20004KT 05/01 A2997 RMK A01 T00460012  RH  079%=      5-min Rain = 0
KPA1 191056Z 21004KT 04/01 A2997 RMK A01 T00430008  RH  078%=      5-min Rain = 0
KPA1 191057Z 22004KT 04/00 A2997 RMK A01 T00400004  RH  077%=      5-min Rain = 0
KPA1 191058Z 23005KT 04/00 A2997 RMK A01 T00360000  RH  077%=      5-min Rain = 0
KPA1 191059Z 23006KT 03/M00 A2997 RMK A01 T00321003  RH  078%=      5-min Rain = 0
KPA1 191100Z 23006KT 03/M00 A2997 RMK A01 T00281002  RH  080%=      5-min Rain = 0
KPA1 191101Z 23005KT 03/00 A2997 RMK A01 T00270001  RH  083%=      5-min Rain = 0
KPA1 191102Z 22005KT 03/00 A2997 RMK A01 T00270002  RH  084%=      5-min Rain = 0
KPA1 191103Z 21005KT 03/00 A2997 RMK A01 T00260001  RH  084%=      5-min Rain = 0
KPA1 191104Z 21005KT 03/00 A2997 RMK A01 T00250000  RH  084%=      5-min Rain = 0
KPA1 191105Z 21005KT 02/00 A2997 RMK A01 T002400-0  RH  084%=      5-min Rain = 0
KPA1 191106Z 21005KT 02/M00 A2997 RMK A01 T00231001  RH  084%=      5-min Rain = 0
KPA1 191107Z 22004KT 02/00 A2997 RMK A01 T002200-0  RH  085%=      5-min Rain = 0
KPA1 191108Z 22004KT 02/00 A2997 RMK A01 T00240004  RH  086%=      5-min Rain = 0
KPA1 191109Z 21005KT 03/00 A2997 RMK A01 T00260003  RH  085%=      5-min Rain = 0
KPA1 191110Z 21005KT 03/00 A2997 RMK A01 T00250001  RH  084%=      5-min Rain = 0
KPA1 191111Z 21005KT 03/00 A2997 RMK A01 T00270003  RH  084%=      5-min Rain = 0
KPA1 191112Z 21004KT 03/00 A2997 RMK A01 T00280004  RH  084%=      5-min Rain = 0
KPA1 191113Z 21004KT 03/00 A2997 RMK A01 T00290002  RH  083%=      5-min Rain = 0
KPA1 191114Z 21004KT 03/00 A2997 RMK A01 T00290002  RH  082%=      5-min Rain = 0
KPA1 191115Z 21004KT 03/00 A2997 RMK A01 T00290002  RH  082%=      5-min Rain = 0
KPA1 191116Z 21004KT 03/00 A2997 RMK A01 T00290001  RH  082%=      5-min Rain = 0
KPA1 191117Z 21004KT 03/00 A2997 RMK A01 T00290001  RH  082%=      5-min Rain = 0
KPA1 191118Z 21004KT 03/00 A2997 RMK A01 T00290002  RH  082%=      5-min Rain = 0
KPA1 191119Z 21004KT 03/00 A2997 RMK A01 T00300003  RH  082%=      5-min Rain = 0
KPA1 191120Z 20004KT 03/00 A2997 RMK A01 T00300002  RH  082%=      5-min Rain = 0
KPA1 191121Z 20004KT 03/00 A2997 RMK A01 T00310003  RH  082%=      5-min Rain = 0
KPA1 191122Z 20004KT 03/00 A2997 RMK A01 T00310003  RH  082%=      5-min Rain = 0
KPA1 191123Z 20004KT 03/00 A2997 RMK A01 T00310003  RH  082%=      5-min Rain = 0
KPA1 191124Z 20004KT 03/01 A2997 RMK A01 T00310005  RH  083%=      5-min Rain = 0
KPA1 191125Z 20004KT 03/01 A2997 RMK A01 T00310005  RH  083%=      5-min Rain = 0
KPA1 191126Z 19004KT 03/01 A2997 RMK A01 T00310006  RH  084%=      5-min Rain = 0
KPA1 191127Z 19004KT 03/01 A2997 RMK A01 T00310007  RH  084%=      5-min Rain = 0
KPA1 191128Z 20004KT 03/01 A2997 RMK A01 T00310007  RH  085%=      5-min Rain = 0
KPA1 191129Z 20004KT 03/01 A2997 RMK A01 T00310007  RH  085%=      5-min Rain = 0
KPA1 191130Z 20003KT 03/01 A2997 RMK A01 T00310008  RH  085%=      5-min Rain = 0
KPA1 191131Z 20003KT 03/01 A2997 RMK A01 T00310008  RH  085%=      5-min Rain = 0
KPA1 191132Z 19003KT 03/01 A2997 RMK A01 T00300007  RH  085%=      5-min Rain = 0
KPA1 191133Z 19003KT 03/01 A2997 RMK A01 T00300007  RH  085%=      5-min Rain = 0
KPA1 191134Z 19003KT 03/01 A2997 RMK A01 T00300007  RH  085%=      5-min Rain = 0
KPA1 191135Z 19004KT 03/01 A2997 RMK A01 T00300007  RH  085%=      5-min Rain = 0
KPA1 191136Z 19003KT 03/01 A2997 RMK A01 T00300007  RH  085%=      5-min Rain = 0
KPA1 191137Z 19003KT 03/01 A2997 RMK A01 T00300007  RH  085%=      5-min Rain = 0
KPA1 191138Z 18003KT 03/01 A2997 RMK A01 T00300007  RH  085%=      5-min Rain = 0
KPA1 191139Z 18003KT 03/01 A2997 RMK A01 T00300007  RH  085%=      5-min Rain = 0
KPA1 191140Z 18003KT 03/01 A2997 RMK A01 T00300007  RH  085%=      5-min Rain = 0
KPA1 191141Z 18003KT 03/01 A2997 RMK A01 T00290007  RH  085%=      5-min Rain = 0
KPA1 191142Z 19003KT 03/01 A2997 RMK A01 T00290007  RH  085%=      5-min Rain = 0
KPA1 191143Z 19003KT 03/01 A2996 RMK A01 T00290006  RH  085%=      5-min Rain = 0
KPA1 191144Z 19003KT 03/01 A2996 RMK A01 T00280005  RH  085%=      5-min Rain = 0
KPA1 191145Z 19003KT 03/00 A2996 RMK A01 T00270001  RH  083%=      5-min Rain = 0
KPA1 191146Z 19003KT 03/M00 A2996 RMK A01 T00261002  RH  082%=      5-min Rain = 0
KPA1 191147Z 19003KT 03/M00 A2996 RMK A01 T00251004  RH  082%=      5-min Rain = 0
KPA1 191148Z 20004KT 02/M01 A2997 RMK A01 T00231005  RH  082%=      5-min Rain = 0
KPA1 191149Z 20004KT 02/M01 A2997 RMK A01 T00221005  RH  082%=      5-min Rain = 0
KPA1 191150Z 19004KT 02/M00 A2997 RMK A01 T00221004  RH  083%=      5-min Rain = 0
KPA1 191151Z 20004KT 02/M00 A2996 RMK A01 T00221004  RH  083%=      5-min Rain = 0
KPA1 191152Z 19004KT 02/M00 A2996 RMK A01 T00221004  RH  083%=      5-min Rain = 0
KPA1 191153Z 19004KT 02/M01 A2996 RMK A01 T00211005  RH  083%=      5-min Rain = 0
KPA1 191154Z 19004KT 02/M01 A2996 RMK A01 T00201005  RH  083%=      5-min Rain = 0
KPA1 191155Z 19004KT 02/M01 A2996 RMK A01 T00191006  RH  083%=      5-min Rain = 0
KPA1 191156Z 20004KT 02/M01 A2996 RMK A01 T00181007  RH  084%=      5-min Rain = 0
KPA1 191157Z 20004KT 02/M01 A2997 RMK A01 T00171007  RH  084%=      5-min Rain = 0
KPA1 191158Z 20003KT 02/M01 A2997 RMK A01 T00161007  RH  084%=      5-min Rain = 0
KPA1 191159Z 20003KT 02/M01 A2996 RMK A01 T00161008  RH  085%=      5-min Rain = 0
KPA1 191200Z 20003KT 02/M01 A2996 RMK A01 T00151007  RH  085%=      5-min Rain = 0
KPA1 191201Z 20003KT 02/M01 A2996 RMK A01 T00151008  RH  085%=      5-min Rain = 0
KPA1 191202Z 19004KT 02/M01 A2996 RMK A01 T00151008  RH  085%=      5-min Rain = 0
KPA1 191203Z 19004KT 02/M01 A2996 RMK A01 T00151008  RH  085%=      5-min Rain = 0
KPA1 191204Z 18004KT 01/M01 A2996 RMK A01 T00141008  RH  085%=      5-min Rain = 0
KPA1 191205Z 18004KT 01/M01 A2996 RMK A01 T00141008  RH  085%=      5-min Rain = 0
KPA1 191206Z 18005KT 01/M01 A2996 RMK A01 T00141008  RH  085%=      5-min Rain = 0
KPA1 191207Z 18005KT 01/M01 A2996 RMK A01 T00141007  RH  086%=      5-min Rain = 0
KPA1 191208Z 18005KT 01/M01 A2996 RMK A01 T00141006  RH  086%=      5-min Rain = 0
KPA1 191209Z 18006KT 02/M01 A2996 RMK A01 T00151005  RH  086%=      5-min Rain = 0
KPA1 191210Z 18006KT 02/M01 A2996 RMK A01 T00161005  RH  086%=      5-min Rain = 0
KPA1 191211Z 18006KT 02/M01 A2996 RMK A01 T00161005  RH  086%=      5-min Rain = 0
KPA1 191212Z 18006KT 02/M01 A2996 RMK A01 T00171005  RH  086%=      5-min Rain = 0
KPA1 191213Z 18006KT 02/M01 A2996 RMK A01 T00171005  RH  086%=      5-min Rain = 0
KPA1 191214Z 17006KT 02/M00 A2996 RMK A01 T00171004  RH  086%=      5-min Rain = 0
KPA1 191215Z 17005KT 02/M00 A2996 RMK A01 T00171004  RH  086%=      5-min Rain = 0
KPA1 191216Z 17006KT 02/M00 A2996 RMK A01 T00171004  RH  086%=      5-min Rain = 0
KPA1 191217Z 17006KT 02/M00 A2996 RMK A01 T00171004  RH  086%=      5-min Rain = 0
KPA1 191218Z 17007KT 02/M00 A2996 RMK A01 T00171004  RH  086%=      5-min Rain = 0
KPA1 191219Z 17007KT 02/M00 A2996 RMK A01 T00181003  RH  086%=      5-min Rain = 0
KPA1 191220Z 17008KT 02/M00 A2996 RMK A01 T00181003  RH  086%=      5-min Rain = 0
KPA1 191221Z 17008KT 02/M00 A2996 RMK A01 T00191002  RH  086%=      5-min Rain = 0
KPA1 191222Z 17008KT 02/M00 A2996 RMK A01 T00191002  RH  086%=      5-min Rain = 0
KPA1 191223Z 16008KT 02/M00 A2996 RMK A01 T00191003  RH  085%=      5-min Rain = 0
KPA1 191224Z 16007KT 02/M00 A2996 RMK A01 T00191003  RH  085%=      5-min Rain = 0
KPA1 191225Z 16007KT 02/M00 A2996 RMK A01 T00191003  RH  085%=      5-min Rain = 0
KPA1 191226Z 16007KT 02/M00 A2996 RMK A01 T00191003  RH  085%=      5-min Rain = 0
KPA1 191227Z 16007KT 02/M00 A2996 RMK A01 T00201002  RH  085%=      5-min Rain = 0
KPA1 191228Z 16007KT 02/M00 A2996 RMK A01 T00211001  RH  085%=      5-min Rain = 0
KPA1 191229Z 16007KT 02/00 A2996 RMK A01 T002200-0  RH  085%=      5-min Rain = 0
KPA1 191230Z 16007KT 02/00 A2996 RMK A01 T00230000  RH  085%=      5-min Rain = 0
KPA1 191231Z 16008KT 03/00 A2996 RMK A01 T00250001  RH  084%=      5-min Rain = 0
KPA1 191232Z 16008KT 03/00 A2996 RMK A01 T00260001  RH  084%=      5-min Rain = 0
KPA1 191233Z 16008KT 03/00 A2996 RMK A01 T00270002  RH  083%=      5-min Rain = 0
KPA1 191234Z 16008KT 03/00 A2996 RMK A01 T00280002  RH  083%=      5-min Rain = 0
KPA1 191235Z 16008KT 03/00 A2996 RMK A01 T00290002  RH  083%=      5-min Rain = 0
KPA1 191236Z 16008KT 03/00 A2996 RMK A01 T00290003  RH  083%=      5-min Rain = 0
KPA1 191237Z 16008KT 03/00 A2996 RMK A01 T00300003  RH  082%=      5-min Rain = 0
KPA1 191238Z 16008KT 03/00 A2996 RMK A01 T00300004  RH  083%=      5-min Rain = 0
KPA1 191239Z 16008KT 03/00 A2996 RMK A01 T00310004  RH  082%=      5-min Rain = 0
KPA1 191240Z 16008KT 03/01 A2996 RMK A01 T00320005  RH  082%=      5-min Rain = 0
KPA1 191241Z 16008KT 03/01 A2996 RMK A01 T00330006  RH  082%=      5-min Rain = 0
KPA1 191242Z 16008KT 03/01 A2996 RMK A01 T00340006  RH  082%=      5-min Rain = 0
KPA1 191243Z 16008KT 04/01 A2996 RMK A01 T00350007  RH  082%=      5-min Rain = 0
KPA1 191244Z 16008KT 04/01 A2996 RMK A01 T00360007  RH  081%=      5-min Rain = 0
KPA1 191245Z 16008KT 04/01 A2996 RMK A01 T00360007  RH  081%=      5-min Rain = 0
KPA1 191246Z 16008KT 04/01 A2996 RMK A01 T00370007  RH  081%=      5-min Rain = 0
KPA1 191247Z 16008KT 04/01 A2996 RMK A01 T00370008  RH  081%=      5-min Rain = 0
KPA1 191248Z 16008KT 04/01 A2996 RMK A01 T00380008  RH  081%=      5-min Rain = 0
KPA1 191249Z 16008KT 04/01 A2996 RMK A01 T00380008  RH  081%=      5-min Rain = 0
KPA1 191250Z 15007KT 04/01 A2996 RMK A01 T00390008  RH  081%=      5-min Rain = 0
KPA1 191251Z 15007KT 04/01 A2996 RMK A01 T00390008  RH  081%=      5-min Rain = 0
KPA1 191252Z 15007KT 04/01 A2996 RMK A01 T00390008  RH  080%=      5-min Rain = 0
KPA1 191253Z 15007KT 04/01 A2996 RMK A01 T00390008  RH  080%=      5-min Rain = 0
KPA1 191254Z 15007KT 04/01 A2996 RMK A01 T00390008  RH  080%=      5-min Rain = 0
KPA1 191255Z 15007KT 04/01 A2996 RMK A01 T00390008  RH  080%=      5-min Rain = 0
KPA1 191256Z 15007KT 04/01 A2996 RMK A01 T00380008  RH  080%=      5-min Rain = 0
KPA1 191257Z 15007KT 04/01 A2996 RMK A01 T00380008  RH  080%=      5-min Rain = 0
KPA1 191258Z 15007KT 04/01 A2996 RMK A01 T00380007  RH  080%=      5-min Rain = 0
KPA1 191259Z 15007KT 04/01 A2996 RMK A01 T00380007  RH  080%=      5-min Rain = 0
KPA1 191300Z 15007KT 04/01 A2996 RMK A01 T00380007  RH  080%=      5-min Rain = 0
KPA1 191301Z 15007KT 04/01 A2996 RMK A01 T00380006  RH  080%=      5-min Rain = 0
KPA1 191302Z 15007KT 04/01 A2996 RMK A01 T00380006  RH  080%=      5-min Rain = 0
KPA1 191303Z 15007KT 04/01 A2996 RMK A01 T00380006  RH  080%=      5-min Rain = 0
KPA1 191304Z 15007KT 04/01 A2996 RMK A01 T00380006  RH  080%=      5-min Rain = 0
KPA1 191305Z 15007KT 04/01 A2996 RMK A01 T00380006  RH  080%=      5-min Rain = 0
KPA1 191306Z 15007KT 04/01 A2996 RMK A01 T00400007  RH  079%=      5-min Rain = 0
KPA1 191307Z 15007KT 04/01 A2996 RMK A01 T00410007  RH  079%=      5-min Rain = 0
KPA1 191308Z 15007KT 04/01 A2996 RMK A01 T00420007  RH  078%=      5-min Rain = 0
KPA1 191309Z 15007KT 04/01 A2996 RMK A01 T00420007  RH  078%=      5-min Rain = 0
KPA1 191310Z 15007KT 04/01 A2996 RMK A01 T00420007  RH  078%=      5-min Rain = 0
KPA1 191311Z 15008KT 04/01 A2996 RMK A01 T00420006  RH  077%=      5-min Rain = 0
KPA1 191312Z 15008KT 04/01 A2996 RMK A01 T00420006  RH  077%=      5-min Rain = 0
KPA1 191313Z 15008KT 04/01 A2996 RMK A01 T00430006  RH  077%=      5-min Rain = 0
KPA1 191314Z 15008KT 04/01 A2996 RMK A01 T00430007  RH  077%=      5-min Rain = 0
KPA1 191315Z 15007KT 04/01 A2996 RMK A01 T00430007  RH  077%=      5-min Rain = 0
KPA1 191316Z 16007KT 04/01 A2996 RMK A01 T00440007  RH  077%=      5-min Rain = 0
KPA1 191317Z 16006KT 04/01 A2996 RMK A01 T00440007  RH  077%=      5-min Rain = 0
KPA1 191318Z 16006KT 04/01 A2996 RMK A01 T00420006  RH  077%=      5-min Rain = 0
KPA1 191319Z 16005KT 04/00 A2996 RMK A01 T00400003  RH  077%=      5-min Rain = 0
KPA1 191320Z 16005KT 04/00 A2996 RMK A01 T003700-0  RH  076%=      5-min Rain = 0
KPA1 191321Z 16004KT 04/M00 A2996 RMK A01 T00351001  RH  077%=      5-min Rain = 0
KPA1 191322Z 17004KT 03/M00 A2996 RMK A01 T00341001  RH  078%=      5-min Rain = 0
KPA1 191323Z 17005KT 03/M00 A2997 RMK A01 T00321001  RH  079%=      5-min Rain = 0
KPA1 191324Z 17005KT 03/00 A2997 RMK A01 T00320000  RH  080%=      5-min Rain = 0
KPA1 191325Z 17005KT 03/00 A2997 RMK A01 T00330004  RH  081%=      5-min Rain = 0
KPA1 191326Z 17005KT 03/01 A2997 RMK A01 T00340007  RH  083%=      5-min Rain = 0
KPA1 191327Z 17005KT 03/01 A2997 RMK A01 T00330007  RH  083%=      5-min Rain = 0
KPA1 191328Z 17005KT 03/01 A2997 RMK A01 T00320007  RH  083%=      5-min Rain = 0
KPA1 191329Z 16006KT 03/00 A2997 RMK A01 T00310003  RH  082%=      5-min Rain = 0
KPA1 191330Z 16007KT 03/00 A2996 RMK A01 T002900-0  RH  081%=      5-min Rain = 0
KPA1 191331Z 16008KT 03/M00 A2996 RMK A01 T00271002  RH  081%=      5-min Rain = 0
KPA1 191332Z 16008KT 03/M00 A2996 RMK A01 T00261003  RH  081%=      5-min Rain = 0
KPA1 191333Z 16008KT 03/M00 A2996 RMK A01 T00251004  RH  081%=      5-min Rain = 0
KPA1 191334Z 17008KT 02/M01 A2996 RMK A01 T00231005  RH  082%=      5-min Rain = 0
KPA1 191335Z 17008KT 02/M01 A2996 RMK A01 T00221005  RH  082%=      5-min Rain = 0
KPA1 191336Z 17007KT 02/M01 A2996 RMK A01 T00221005  RH  083%=      5-min Rain = 0
KPA1 191337Z 17007KT 02/M00 A2996 RMK A01 T00211004  RH  083%=      5-min Rain = 0
KPA1 191338Z 17007KT 02/M00 A2996 RMK A01 T00211003  RH  084%=      5-min Rain = 0
KPA1 191339Z 17006KT 02/M00 A2996 RMK A01 T00211003  RH  084%=      5-min Rain = 0
KPA1 191340Z 18006KT 02/M00 A2996 RMK A01 T00211002  RH  085%=      5-min Rain = 0
KPA1 191341Z 18007KT 02/M00 A2996 RMK A01 T00211002  RH  085%=      5-min Rain = 0
KPA1 191342Z 18007KT 02/M00 A2996 RMK A01 T00221001  RH  085%=      5-min Rain = 0
KPA1 191343Z 18007KT 02/00 A2996 RMK A01 T002300-0  RH  085%=      5-min Rain = 0
KPA1 191344Z 18007KT 02/00 A2996 RMK A01 T00240000  RH  084%=      5-min Rain = 0
KPA1 191345Z 17008KT 03/00 A2996 RMK A01 T00250000  RH  084%=      5-min Rain = 0
KPA1 191346Z 17008KT 03/00 A2996 RMK A01 T00260001  RH  084%=      5-min Rain = 0
KPA1 191347Z 17008KT 03/00 A2996 RMK A01 T00270001  RH  083%=      5-min Rain = 0
KPA1 191348Z 17008KT 03/00 A2996 RMK A01 T00280001  RH  083%=      5-min Rain = 0
KPA1 191349Z 16008KT 03/00 A2996 RMK A01 T00290002  RH  083%=      5-min Rain = 0
KPA1 191350Z 16008KT 03/00 A2996 RMK A01 T00300002  RH  082%=      5-min Rain = 0
KPA1 191351Z 16008KT 03/00 A2996 RMK A01 T00310003  RH  082%=      5-min Rain = 0
KPA1 191352Z 17008KT 03/00 A2996 RMK A01 T00320003  RH  082%=      5-min Rain = 0
KPA1 191353Z 16008KT 03/00 A2996 RMK A01 T00330004  RH  081%=      5-min Rain = 0
KPA1 191354Z 16007KT 03/01 A2996 RMK A01 T00340005  RH  081%=      5-min Rain = 0
KPA1 191355Z 16007KT 04/01 A2996 RMK A01 T00350006  RH  081%=      5-min Rain = 0
KPA1 191356Z 16007KT 04/01 A2996 RMK A01 T00370006  RH  080%=      5-min Rain = 0
KPA1 191357Z 16007KT 04/01 A2996 RMK A01 T00380007  RH  080%=      5-min Rain = 0
KPA1 191358Z 17006KT 04/01 A2996 RMK A01 T00390008  RH  080%=      5-min Rain = 0
KPA1 191359Z 17006KT 04/01 A2996 RMK A01 T00400008  RH  080%=      5-min Rain = 0
KPA1 191400Z 17005KT 04/01 A2996 RMK A01 T00410008  RH  079%=      5-min Rain = 0
KPA1 191401Z 18005KT 04/01 A2996 RMK A01 T00420008  RH  079%=      5-min Rain = 0
KPA1 191402Z 18005KT 04/01 A2996 RMK A01 T00420008  RH  079%=      5-min Rain = 0
KPA1 191403Z 18005KT 04/01 A2996 RMK A01 T00420008  RH  079%=      5-min Rain = 0
KPA1 191404Z 18005KT 04/01 A2996 RMK A01 T00430009  RH  079%=      5-min Rain = 0
KPA1 191405Z 18005KT 04/01 A2996 RMK A01 T00430009  RH  079%=      5-min Rain = 0
KPA1 191406Z 18005KT 04/01 A2996 RMK A01 T00440010  RH  079%=      5-min Rain = 0
KPA1 191407Z 17006KT 05/01 A2996 RMK A01 T00450011  RH  079%=      5-min Rain = 0
KPA1 191408Z 17006KT 05/01 A2996 RMK A01 T00460012  RH  079%=      5-min Rain = 0
KPA1 191409Z 17006KT 05/01 A2996 RMK A01 T00470012  RH  078%=      5-min Rain = 0
KPA1 191410Z 17005KT 05/01 A2996 RMK A01 T00480012  RH  077%=      5-min Rain = 0
KPA1 191411Z 17005KT 05/01 A2996 RMK A01 T00480012  RH  077%=      5-min Rain = 0
KPA1 191412Z 17005KT 05/01 A2996 RMK A01 T00490013  RH  077%=      5-min Rain = 0
KPA1 191413Z 17005KT 05/01 A2996 RMK A01 T00500012  RH  077%=      5-min Rain = 0
KPA1 191414Z 16005KT 05/01 A2996 RMK A01 T00510013  RH  076%=      5-min Rain = 0
KPA1 191415Z 16005KT 05/01 A2996 RMK A01 T00520013  RH  076%=      5-min Rain = 0
KPA1 191416Z 16005KT 05/01 A2996 RMK A01 T00530014  RH  076%=      5-min Rain = 0
KPA1 191417Z 16005KT 06/02 A2996 RMK A01 T00550015  RH  076%=      5-min Rain = 0
KPA1 191418Z 16005KT 06/02 A2996 RMK A01 T00570015  RH  075%=      5-min Rain = 0
KPA1 191419Z 17005KT 06/02 A2996 RMK A01 T00580015  RH  074%=      5-min Rain = 0
KPA1 191420Z 17004KT 06/02 A2997 RMK A01 T00590016  RH  074%=      5-min Rain = 0
KPA1 191421Z 18004KT 06/02 A2997 RMK A01 T00610016  RH  073%=      5-min Rain = 0
KPA1 191422Z 18003KT 06/02 A2997 RMK A01 T00620017  RH  073%=      5-min Rain = 0
KPA1 191423Z 18003KT 06/02 A2997 RMK A01 T00630018  RH  073%=      5-min Rain = 0
KPA1 191424Z 18003KT 06/02 A2997 RMK A01 T00630018  RH  073%=      5-min Rain = 0
KPA1 191425Z 18003KT 06/02 A2997 RMK A01 T00640018  RH  072%=      5-min Rain = 0
KPA1 191426Z 17003KT 07/02 A2997 RMK A01 T00650017  RH  072%=      5-min Rain = 0
KPA1 191427Z 17003KT 07/02 A2997 RMK A01 T00660019  RH  072%=      5-min Rain = 0
KPA1 191428Z 17003KT 07/02 A2997 RMK A01 T00680017  RH  070%=      5-min Rain = 0
KPA1 191429Z 17003KT 07/02 A2997 RMK A01 T00700018  RH  069%=      5-min Rain = 0
KPA1 191430Z 16004KT 07/02 A2996 RMK A01 T00710019  RH  069%=      5-min Rain = 0
KPA1 191431Z 16004KT 07/02 A2996 RMK A01 T00720019  RH  069%=      5-min Rain = 0
KPA1 191432Z 16004KT 07/02 A2996 RMK A01 T00740018  RH  068%=      5-min Rain = 0
KPA1 191433Z 16004KT 08/02 A2996 RMK A01 T00750019  RH  068%=      5-min Rain = 0
KPA1 191434Z 16004KT 08/02 A2996 RMK A01 T00760020  RH  067%=      5-min Rain = 0
KPA1 191435Z 16004KT 08/02 A2996 RMK A01 T00780020  RH  067%=      5-min Rain = 0
KPA1 191436Z 16004KT 08/02 A2996 RMK A01 T00790021  RH  067%=      5-min Rain = 0
KPA1 191437Z 16005KT 08/02 A2996 RMK A01 T00810021  RH  066%=      5-min Rain = 0
KPA1 191438Z 16005KT 08/02 A2996 RMK A01 T00820021  RH  065%=      5-min Rain = 0
KPA1 191439Z 16005KT 08/02 A2996 RMK A01 T00830020  RH  064%=      5-min Rain = 0
KPA1 191440Z 16005KT 08/02 A2996 RMK A01 T00840019  RH  064%=      5-min Rain = 0
KPA1 191441Z 15005KT 09/02 A2996 RMK A01 T00860019  RH  063%=      5-min Rain = 0
KPA1 191442Z 15005KT 09/02 A2996 RMK A01 T00860019  RH  063%=      5-min Rain = 0
KPA1 191443Z 15006KT 09/02 A2996 RMK A01 T00880019  RH  062%=      5-min Rain = 0
KPA1 191444Z 15006KT 09/02 A2996 RMK A01 T00890019  RH  061%=      5-min Rain = 0
KPA1 191445Z 15006KT 09/02 A2996 RMK A01 T00900020  RH  061%=      5-min Rain = 0
KPA1 191446Z 15007KT 09/02 A2996 RMK A01 T00910018  RH  060%=      5-min Rain = 0
KPA1 191447Z 15006KT 09/02 A2996 RMK A01 T00930019  RH  060%=      5-min Rain = 0
KPA1 191448Z 15006KT 09/02 A2996 RMK A01 T00940020  RH  060%=      5-min Rain = 0
KPA1 191449Z 15006KT 10/02 A2996 RMK A01 T00950019  RH  059%=      5-min Rain = 0
KPA1 191450Z 15006KT 10/02 A2995 RMK A01 T00970019  RH  059%=      5-min Rain = 0
KPA1 191451Z 15006KT 10/02 A2995 RMK A01 T00980019  RH  058%=      5-min Rain = 0
KPA1 191452Z 15006KT 10/02 A2995 RMK A01 T00990020  RH  058%=      5-min Rain = 0
KPA1 191453Z 15006KT 10/02 A2995 RMK A01 T01000018  RH  057%=      5-min Rain = 0
KPA1 191454Z 14007KT 10/02 A2995 RMK A01 T01010018  RH  056%=      5-min Rain = 0
KPA1 191455Z 15006KT 10/02 A2995 RMK A01 T01030017  RH  055%=      5-min Rain = 0
KPA1 191456Z 15007KT 10/02 A2995 RMK A01 T01040018  RH  055%=      5-min Rain = 0
KPA1 191457Z 15007KT 11/02 A2995 RMK A01 T01060018  RH  054%=      5-min Rain = 0
KPA1 191458Z 14007KT 11/02 A2995 RMK A01 T01070017  RH  054%=      5-min Rain = 0
KPA1 191459Z 15007KT 11/02 A2995 RMK A01 T01080018  RH  054%=      5-min Rain = 0
KPA1 191500Z 15007KT 11/02 A2995 RMK A01 T01090018  RH  054%=      5-min Rain = 0
KPA1 191501Z 15007KT 11/02 A2995 RMK A01 T01100017  RH  053%=      5-min Rain = 0
KPA1 191502Z 15007KT 11/02 A2995 RMK A01 T01110020  RH  054%=      5-min Rain = 0
KPA1 191503Z 15008KT 11/02 A2995 RMK A01 T01120018  RH  052%=      5-min Rain = 0
KPA1 191504Z 16009KT 11/02 A2995 RMK A01 T01120018  RH  052%=      5-min Rain = 0
KPA1 191505Z 15009KT 11/02 A2995 RMK A01 T01120017  RH  052%=      5-min Rain = 0
KPA1 191506Z 16008KT 11/02 A2995 RMK A01 T01120018  RH  052%=      5-min Rain = 0
KPA1 191507Z 15009KT 11/02 A2995 RMK A01 T01120017  RH  052%=      5-min Rain = 0
KPA1 191508Z 16010KT 11/02 A2995 RMK A01 T01130018  RH  052%=      5-min Rain = 0
KPA1 191509Z 16009KT 11/02 A2995 RMK A01 T01130019  RH  052%=      5-min Rain = 0
KPA1 191510Z 16008KT 11/02 A2995 RMK A01 T01130020  RH  053%=      5-min Rain = 0
KPA1 191511Z 16008KT 11/02 A2995 RMK A01 T01130021  RH  053%=      5-min Rain = 0
KPA1 191512Z 16010KT 11/02 A2995 RMK A01 T01140022  RH  053%=      5-min Rain = 0
KPA1 191513Z 16009KT 12/02 A2995 RMK A01 T01150021  RH  053%=      5-min Rain = 0
KPA1 191514Z 16009KT 12/02 A2995 RMK A01 T01170023  RH  052%=      5-min Rain = 0
KPA1 191515Z 16008KT 12/02 A2995 RMK A01 T01180024  RH  052%=      5-min Rain = 0
KPA1 191516Z 16009KT 12/02 A2995 RMK A01 T01200024  RH  052%=      5-min Rain = 0
KPA1 191517Z 16008KT 12/03 A2995 RMK A01 T01200025  RH  052%=      5-min Rain = 0
KPA1 191518Z 16008KT 12/03 A2995 RMK A01 T01210026  RH  052%=      5-min Rain = 0
KPA1 191519Z 16010KT 12/03 A2995 RMK A01 T01230025  RH  051%=      5-min Rain = 0
KPA1 191520Z 17010KT 12/02 A2995 RMK A01 T01240024  RH  051%=      5-min Rain = 0
KPA1 191521Z 17010KT 13/03 A2995 RMK A01 T01260026  RH  051%=      5-min Rain = 0
KPA1 191522Z 17011KT 13/03 A2995 RMK A01 T01270025  RH  050%=      5-min Rain = 0
KPA1 191523Z 17011KT 13/02 A2995 RMK A01 T01280024  RH  049%=      5-min Rain = 0
KPA1 191524Z 17010KT 13/02 A2995 RMK A01 T01290024  RH  049%=      5-min Rain = 0
KPA1 191525Z 17009KT 13/03 A2995 RMK A01 T01300027  RH  049%=      5-min Rain = 0
KPA1 191526Z 17008KT 13/03 A2995 RMK A01 T01320027  RH  049%=      5-min Rain = 0
KPA1 191527Z 17011KT 13/03 A2995 RMK A01 T01340027  RH  048%=      5-min Rain = 0
KPA1 191528Z 17010KT 14/03 A2995 RMK A01 T01350025  RH  047%=      5-min Rain = 0
KPA1 191529Z 17010KT 14/03 A2995 RMK A01 T01370027  RH  047%=      5-min Rain = 0
KPA1 191530Z 16009KT 14/03 A2995 RMK A01 T01380027  RH  047%=      5-min Rain = 0
KPA1 191531Z 17010KT 14/03 A2995 RMK A01 T01400027  RH  047%=      5-min Rain = 0
KPA1 191532Z 16010KT 14/03 A2995 RMK A01 T01410028  RH  047%=      5-min Rain = 0
KPA1 191533Z 17010KT 14/03 A2995 RMK A01 T01420027  RH  046%=      5-min Rain = 0
KPA1 191534Z 17009KT 14/03 A2995 RMK A01 T01420027  RH  046%=      5-min Rain = 0
KPA1 191535Z 17010KT 15/03 A2995 RMK A01 T01450031  RH  046%=      5-min Rain = 0
KPA1 191536Z 17014KT 15/03 A2995 RMK A01 T01480028  RH  045%=      5-min Rain = 0
KPA1 191537Z 17013KT 15/03 A2995 RMK A01 T01490025  RH  043%=      5-min Rain = 0
KPA1 191538Z 17012KT 15/02 A2995 RMK A01 T01490024  RH  043%=      5-min Rain = 0
KPA1 191539Z 18011KT 15/03 A2995 RMK A01 T01500025  RH  043%=      5-min Rain = 0
KPA1 191540Z 18008KT 15/03 A2995 RMK A01 T01520028  RH  043%=      5-min Rain = 0
KPA1 191541Z 18011KT 15/03 A2995 RMK A01 T01540030  RH  043%=      5-min Rain = 0
KPA1 191542Z 18012KT 16/03 A2995 RMK A01 T01550027  RH  042%=      5-min Rain = 0
KPA1 191543Z 18012KT 16/03 A2995 RMK A01 T01550026  RH  042%=      5-min Rain = 0
KPA1 191544Z 18012KT 16/02 A2995 RMK A01 T01550023  RH  041%=      5-min Rain = 0
KPA1 191545Z 18010KT 15/02 A2995 RMK A01 T01540023  RH  041%=      5-min Rain = 0
KPA1 191546Z 18012KT 16/02 A2995 RMK A01 T01550023  RH  041%=      5-min Rain = 0
KPA1 191547Z 18016KT 16/02 A2995 RMK A01 T01560021  RH  040%=      5-min Rain = 0
KPA1 191548Z 18015KT 16/02 A2995 RMK A01 T01560018  RH  039%=      5-min Rain = 0
KPA1 191549Z 17014KT 16/02 A2995 RMK A01 T01550019  RH  040%=      5-min Rain = 0
KPA1 191550Z 18014KT 16/02 A2995 RMK A01 T01560020  RH  040%=      5-min Rain = 0
KPA1 191551Z 18013KT 16/02 A2995 RMK A01 T01570021  RH  040%=      5-min Rain = 0
KPA1 191552Z 18014KT 16/02 A2995 RMK A01 T01580021  RH  040%=      5-min Rain = 0
KPA1 191553Z 18012KT 16/02 A2995 RMK A01 T01580021  RH  039%=      5-min Rain = 0
KPA1 191554Z 18013KT 16/02 A2995 RMK A01 T01590021  RH  039%=      5-min Rain = 0
KPA1 191555Z 18014KT 16/02 A2995 RMK A01 T01600021  RH  039%=      5-min Rain = 0
KPA1 191556Z 18016KT 16/02 A2995 RMK A01 T01600020  RH  039%=      5-min Rain = 0
KPA1 191557Z 18015KT 16/02 A2995 RMK A01 T01610019  RH  038%=      5-min Rain = 0
KPA1 191558Z 18013KT 16/02 A2995 RMK A01 T01610019  RH  038%=      5-min Rain = 0
KPA1 191559Z 18014KT 16/02 A2995 RMK A01 T01620020  RH  038%=      5-min Rain = 0
KPA1 191600Z 18013KT 16/02 A2995 RMK A01 T01630019  RH  038%=      5-min Rain = 0
KPA1 191601Z 18012KT 16/02 A2995 RMK A01 T01630021  RH  038%=      5-min Rain = 0
KPA1 191602Z 18014KT 17/02 A2995 RMK A01 T01650023  RH  038%=      5-min Rain = 0
KPA1 191603Z 18013KT 17/02 A2995 RMK A01 T01660022  RH  038%=      5-min Rain = 0
KPA1 191604Z 18010KT 17/02 A2995 RMK A01 T01680022  RH  038%=      5-min Rain = 0
KPA1 191605Z 18009KT 17/03 A2995 RMK A01 T01700026  RH  038%=      5-min Rain = 0
KPA1 191606Z 18014KT 17/03 A2995 RMK A01 T01710026  RH  038%=      5-min Rain = 0
KPA1 191607Z 17013KT 17/02 A2995 RMK A01 T01710023  RH  037%=      5-min Rain = 0
KPA1 191608Z 17016KT 17/02 A2995 RMK A01 T01710021  RH  036%=      5-min Rain = 0
KPA1 191609Z 18013KT 17/02 A2995 RMK A01 T01710020  RH  036%=      5-min Rain = 0
KPA1 191610Z 17015KT 17/02 A2995 RMK A01 T01710021  RH  036%=      5-min Rain = 0
KPA1 191611Z 17016KT 17/02 A2995 RMK A01 T01720019  RH  036%=      5-min Rain = 0
KPA1 191612Z 17017KT 17/02 A2995 RMK A01 T01720016  RH  035%=      5-min Rain = 0
KPA1 191613Z 17013G18KT 17/02 A2995 RMK A01 T01720017  RH  035%=      5-min Rain = 0
KPA1 191614Z 17016KT 17/02 A2995 RMK A01 T01730019  RH  036%=      5-min Rain = 0
KPA1 191615Z 17015KT 17/02 A2995 RMK A01 T01730018  RH  035%=      5-min Rain = 0
KPA1 191616Z 17015KT 17/02 A2995 RMK A01 T01740019  RH  035%=      5-min Rain = 0
KPA1 191617Z 17016KT 18/02 A2995 RMK A01 T01750018  RH  035%=      5-min Rain = 0
KPA1 191618Z 17017KT 18/02 A2995 RMK A01 T01750017  RH  035%=      5-min Rain = 0
KPA1 191619Z 17017KT 18/02 A2995 RMK A01 T01750017  RH  035%=      5-min Rain = 0
KPA1 191620Z 17015KT 18/02 A2995 RMK A01 T01750017  RH  035%=      5-min Rain = 0
KPA1 191621Z 17017KT 18/02 A2994 RMK A01 T01750016  RH  034%=      5-min Rain = 0
KPA1 191622Z 18014KT 18/02 A2994 RMK A01 T01750017  RH  035%=      5-min Rain = 0
KPA1 191623Z 18015KT 18/02 A2994 RMK A01 T01760019  RH  035%=      5-min Rain = 0
KPA1 191624Z 17016KT 18/02 A2994 RMK A01 T01760018  RH  035%=      5-min Rain = 0
KPA1 191625Z 17014KT 18/02 A2994 RMK A01 T01770018  RH  034%=      5-min Rain = 0
KPA1 191626Z 17017KT 18/02 A2994 RMK A01 T01770018  RH  034%=      5-min Rain = 0
KPA1 191627Z 17015KT 18/02 A2994 RMK A01 T01780017  RH  034%=      5-min Rain = 0
KPA1 191628Z 17016KT 18/02 A2994 RMK A01 T01790018  RH  034%=      5-min Rain = 0
KPA1 191629Z 18016KT 18/02 A2994 RMK A01 T01800018  RH  034%=      5-min Rain = 0
KPA1 191630Z 17016KT 18/02 A2994 RMK A01 T01800018  RH  034%=      5-min Rain = 0
KPA1 191631Z 18016KT 18/02 A2994 RMK A01 T01810016  RH  033%=      5-min Rain = 0
KPA1 191632Z 17014KT 18/02 A2994 RMK A01 T01810016  RH  033%=      5-min Rain = 0
KPA1 191633Z 18014KT 18/02 A2994 RMK A01 T01820019  RH  034%=      5-min Rain = 0
KPA1 191634Z 17013KT 18/02 A2994 RMK A01 T01830019  RH  033%=      5-min Rain = 0
KPA1 191635Z 18012G17KT 19/02 A2994 RMK A01 T01850022  RH  034%=      5-min Rain = 0
KPA1 191636Z 18016KT 19/02 A2994 RMK A01 T01870020  RH  033%=      5-min Rain = 0
KPA1 191637Z 17013KT 19/02 A2994 RMK A01 T01860017  RH  032%=      5-min Rain = 0
KPA1 191638Z 17013KT 19/02 A2994 RMK A01 T01850018  RH  033%=      5-min Rain = 0
KPA1 191639Z 17014G19KT 19/02 A2994 RMK A01 T01870021  RH  033%=      5-min Rain = 0
KPA1 191640Z 17012KT 19/02 A2994 RMK A01 T01880018  RH  032%=      5-min Rain = 0
KPA1 191641Z 17011KT 19/02 A2994 RMK A01 T01890019  RH  032%=      5-min Rain = 0
KPA1 191642Z 18015KT 19/02 A2994 RMK A01 T01910019  RH  032%=      5-min Rain = 0
KPA1 191643Z 17015KT 19/02 A2994 RMK A01 T01910017  RH  031%=      5-min Rain = 0
KPA1 191644Z 18015KT 19/02 A2994 RMK A01 T01900017  RH  031%=      5-min Rain = 0
KPA1 191645Z 17014KT 19/02 A2994 RMK A01 T01890017  RH  032%=      5-min Rain = 0
KPA1 191646Z 17012KT 19/02 A2994 RMK A01 T01910019  RH  032%=      5-min Rain = 0
KPA1 191647Z 17010KT 19/02 A2994 RMK A01 T01930021  RH  032%=      5-min Rain = 0
KPA1 191648Z 17017KT 20/02 A2994 RMK A01 T01960020  RH  031%=      5-min Rain = 0
KPA1 191649Z 17016KT 19/01 A2994 RMK A01 T01940014  RH  030%=      5-min Rain = 0
KPA1 191650Z 17018KT 19/01 A2994 RMK A01 T01930013  RH  030%=      5-min Rain = 0
KPA1 191651Z 17019KT 19/01 A2994 RMK A01 T01920011  RH  030%=      5-min Rain = 0
KPA1 191652Z 17018KT 19/01 A2993 RMK A01 T01920011  RH  030%=      5-min Rain = 0
KPA1 191653Z 17019KT 19/01 A2993 RMK A01 T01920010  RH  030%=      5-min Rain = 0
KPA1 191654Z 17017G24KT 19/01 A2993 RMK A01 T01920012  RH  030%=      5-min Rain = 0
KPA1 191655Z 17019KT 19/01 A2993 RMK A01 T01930012  RH  030%=      5-min Rain = 0
KPA1 191656Z 17018G24KT 19/01 A2993 RMK A01 T01940011  RH  029%=      5-min Rain = 0
KPA1 191657Z 17019KT 20/01 A2993 RMK A01 T01950011  RH  029%=      5-min Rain = 0
KPA1 191658Z 17018KT 20/01 A2993 RMK A01 T01950009  RH  029%=      5-min Rain = 0
KPA1 191659Z 17015KT 20/01 A2993 RMK A01 T01960010  RH  029%=      5-min Rain = 0
KPA1 191700Z 18015KT 20/02 A2993 RMK A01 T01980015  RH  030%=      5-min Rain = 0
KPA1 191701Z 17018G23KT 20/02 A2993 RMK A01 T02000015  RH  029%=      5-min Rain = 0
KPA1 191702Z 17020KT 20/01 A2993 RMK A01 T02000010  RH  028%=      5-min Rain = 0
KPA1 191703Z 16019KT 20/01 A2993 RMK A01 T01990009  RH  028%=      5-min Rain = 0
KPA1 191704Z 17021G26KT 20/01 A2993 RMK A01 T01990007  RH  028%=      5-min Rain = 0
KPA1 191705Z 17021KT 20/01 A2993 RMK A01 T01990007  RH  028%=      5-min Rain = 0
KPA1 191706Z 17020KT 20/01 A2993 RMK A01 T01990006  RH  028%=      5-min Rain = 0
KPA1 191707Z 17021G26KT 20/01 A2993 RMK A01 T01990007  RH  028%=      5-min Rain = 0
KPA1 191708Z 17019KT 20/01 A2993 RMK A01 T02000006  RH  027%=      5-min Rain = 0
KPA1 191709Z 17021KT 20/01 A2993 RMK A01 T02000006  RH  027%=      5-min Rain = 0
KPA1 191710Z 17019KT 20/01 A2993 RMK A01 T02000005  RH  027%=      5-min Rain = 0
KPA1 191711Z 18016G21KT 20/01 A2993 RMK A01 T02010007  RH  027%=      5-min Rain = 0
KPA1 191712Z 18019KT 20/01 A2993 RMK A01 T02030008  RH  027%=      5-min Rain = 0
KPA1 191713Z 18020KT 20/01 A2993 RMK A01 T02040008  RH  027%=      5-min Rain = 0
KPA1 191714Z 18017KT 20/01 A2993 RMK A01 T02030008  RH  027%=      5-min Rain = 0
KPA1 191715Z 18019KT 20/01 A2993 RMK A01 T02040007  RH  027%=      5-min Rain = 0
KPA1 191716Z 18016KT 20/01 A2993 RMK A01 T02040009  RH  027%=      5-min Rain = 0
KPA1 191717Z 18017KT 21/01 A2993 RMK A01 T02050010  RH  027%=      5-min Rain = 0
KPA1 191718Z 18016KT 21/01 A2993 RMK A01 T02060010  RH  027%=      5-min Rain = 0
KPA1 191719Z 18018KT 21/01 A2992 RMK A01 T02070011  RH  027%=      5-min Rain = 0
KPA1 191720Z 18021KT 21/01 A2992 RMK A01 T02070010  RH  027%=      5-min Rain = 0
KPA1 191721Z 18018KT 21/01 A2992 RMK A01 T02060008  RH  027%=      5-min Rain = 0
KPA1 191722Z 18022KT 21/01 A2992 RMK A01 T02050007  RH  027%=      5-min Rain = 0
KPA1 191723Z 18021KT 20/01 A2992 RMK A01 T02030006  RH  027%=      5-min Rain = 0
KPA1 191724Z 18020KT 20/01 A2992 RMK A01 T02030007  RH  027%=      5-min Rain = 0
KPA1 191725Z 18019KT 20/01 A2992 RMK A01 T02030008  RH  027%=      5-min Rain = 0
KPA1 191726Z 18022KT 20/01 A2992 RMK A01 T02030008  RH  027%=      5-min Rain = 0
KPA1 191727Z 18020KT 20/01 A2992 RMK A01 T02030008  RH  027%=      5-min Rain = 0
KPA1 191728Z 18020KT 20/01 A2992 RMK A01 T02020009  RH  027%=      5-min Rain = 0
KPA1 191729Z 18019G24KT 20/01 A2992 RMK A01 T02020010  RH  028%=      5-min Rain = 0
KPA1 191730Z 18019G25KT 20/01 A2992 RMK A01 T02020009  RH  027%=      5-min Rain = 0
KPA1 191731Z 18018KT 20/01 A2992 RMK A01 T02020010  RH  028%=      5-min Rain = 0
KPA1 191732Z 18020KT 20/01 A2992 RMK A01 T02020012  RH  028%=      5-min Rain = 0
KPA1 191733Z 18021KT 20/01 A2992 RMK A01 T02030011  RH  028%=      5-min Rain = 0
KPA1 191734Z 18019G24KT 20/01 A2992 RMK A01 T02020010  RH  028%=      5-min Rain = 0
KPA1 191735Z 18017KT 20/01 A2992 RMK A01 T02020013  RH  028%=      5-min Rain = 0
KPA1 191736Z 18019KT 20/01 A2992 RMK A01 T02040014  RH  028%=      5-min Rain = 0
KPA1 191737Z 18019G27KT 21/02 A2992 RMK A01 T02050015  RH  028%=      5-min Rain = 0
KPA1 191738Z 18023KT 21/01 A2991 RMK A01 T02060013  RH  028%=      5-min Rain = 0
KPA1 191739Z 18020KT 20/01 A2991 RMK A01 T02040011  RH  028%=      5-min Rain = 0
KPA1 191740Z 18021KT 20/01 A2991 RMK A01 T02030013  RH  028%=      5-min Rain = 0
KPA1 191741Z 17021KT 20/01 A2991 RMK A01 T02020012  RH  028%=      5-min Rain = 0
KPA1 191742Z 17021KT 20/01 A2991 RMK A01 T02020013  RH  028%=      5-min Rain = 0
KPA1 191743Z 17019KT 20/01 A2991 RMK A01 T02020013  RH  028%=      5-min Rain = 0
KPA1 191744Z 17017KT 20/01 A2991 RMK A01 T02020013  RH  028%=      5-min Rain = 0
KPA1 191745Z 18017G23KT 20/02 A2991 RMK A01 T02040016  RH  029%=      5-min Rain = 0
KPA1 191746Z 18022KT 21/02 A2991 RMK A01 T02050015  RH  028%=      5-min Rain = 0
KPA1 191747Z 17018KT 20/01 A2991 RMK A01 T02030013  RH  028%=      5-min Rain = 0
KPA1 191748Z 18021KT 20/02 A2991 RMK A01 T02030015  RH  029%=      5-min Rain = 0
KPA1 191749Z 18021KT 20/02 A2991 RMK A01 T02030015  RH  029%=      5-min Rain = 0
KPA1 191750Z 18020KT 20/01 A299 RMK A01 T02030013  RH  028%=      5-min Rain = 0
KPA1 191751Z 18019KT 20/01 A299 RMK A01 T02030014  RH  028%=      5-min Rain = 0
KPA1 191752Z 18020KT 20/01 A299 RMK A01 T02030013  RH  028%=      5-min Rain = 0
KPA1 191753Z 18018G23KT 20/01 A299 RMK A01 T02030014  RH  028%=      5-min Rain = 0
KPA1 191754Z 18018KT 20/02 A299 RMK A01 T02040017  RH  029%=      5-min Rain = 0
KPA1 191755Z 18017KT 21/02 A299 RMK A01 T02050019  RH  029%=      5-min Rain = 0
KPA1 191756Z 18016KT 21/02 A299 RMK A01 T02070017  RH  028%=      5-min Rain = 0
KPA1 191757Z 18018G23KT 21/02 A299 RMK A01 T02080019  RH  028%=      5-min Rain = 0
KPA1 191758Z 17020KT 21/02 A299 RMK A01 T02090017  RH  028%=      5-min Rain = 0
KPA1 191759Z 17023KT 21/02 A299 RMK A01 T02080015  RH  028%=      5-min Rain = 0
KPA1 191800Z 17019G24KT 21/01 A299 RMK A01 T02070013  RH  027%=      5-min Rain = 0
KPA1 191801Z 18020KT 21/01 A299 RMK A01 T02060013  RH  028%=      5-min Rain = 0
KPA1 191802Z 18020KT 21/01 A299 RMK A01 T02050013  RH  028%=      5-min Rain = 0
KPA1 191803Z 18021KT 21/01 A299 RMK A01 T02050013  RH  028%=      5-min Rain = 0
KPA1 191804Z 17019G24KT 20/01 A299 RMK A01 T02040012  RH  028%=      5-min Rain = 0
KPA1 191805Z 18021KT 20/01 A2989 RMK A01 T02040012  RH  028%=      5-min Rain = 0
KPA1 191806Z 18020KT 20/01 A2989 RMK A01 T02020011  RH  028%=      5-min Rain = 0
KPA1 191807Z 18018G23KT 20/01 A2989 RMK A01 T02030014  RH  028%=      5-min Rain = 0
KPA1 191808Z 17023G28KT 21/01 A2989 RMK A01 T02050013  RH  028%=      5-min Rain = 0
KPA1 191809Z 18020KT 21/01 A2989 RMK A01 T02050011  RH  028%=      5-min Rain = 0
KPA1 191810Z 18020KT 21/01 A2989 RMK A01 T02060012  RH  028%=      5-min Rain = 0
KPA1 191811Z 18021KT 21/01 A2989 RMK A01 T02060012  RH  028%=      5-min Rain = 0
KPA1 191812Z 18019G24KT 21/01 A2989 RMK A01 T02050012  RH  028%=      5-min Rain = 0
KPA1 191813Z 18020KT 21/01 A2989 RMK A01 T02050012  RH  028%=      5-min Rain = 0
KPA1 191814Z 17022G27KT 21/01 A2989 RMK A01 T02070013  RH  028%=      5-min Rain = 0
KPA1 191815Z 18020KT 21/01 A2989 RMK A01 T02060011  RH  027%=      5-min Rain = 0
KPA1 191816Z 18017KT 21/01 A2989 RMK A01 T02060013  RH  028%=      5-min Rain = 0
KPA1 191817Z 19019KT 21/01 A2989 RMK A01 T02050014  RH  028%=      5-min Rain = 0
KPA1 191818Z 19018KT 21/01 A2989 RMK A01 T02050014  RH  028%=      5-min Rain = 0
KPA1 191819Z 19017KT 20/02 A2989 RMK A01 T02040016  RH  029%=      5-min Rain = 0
KPA1 191820Z 18020KT 20/02 A2989 RMK A01 T02040016  RH  029%=      5-min Rain = 0
KPA1 191821Z 17019KT 20/02 A2989 RMK A01 T02040015  RH  029%=      5-min Rain = 0
KPA1 191822Z 18021KT 20/02 A2988 RMK A01 T02040015  RH  028%=      5-min Rain = 0
KPA1 191823Z 18016KT 20/02 A2989 RMK A01 T02040016  RH  029%=      5-min Rain = 0
KPA1 191824Z 18014KT 21/02 A2989 RMK A01 T02050019  RH  029%=      5-min Rain = 0
KPA1 191825Z 17014KT 21/02 A2988 RMK A01 T02070020  RH  029%=      5-min Rain = 0
KPA1 191826Z 17017KT 21/02 A2988 RMK A01 T02080020  RH  029%=      5-min Rain = 0
KPA1 191827Z 17016KT 21/02 A2988 RMK A01 T02090017  RH  028%=      5-min Rain = 0
KPA1 191828Z 17018KT 21/02 A2988 RMK A01 T02100018  RH  028%=      5-min Rain = 0
KPA1 191829Z 17020KT 21/02 A2988 RMK A01 T02100018  RH  028%=      5-min Rain = 0
KPA1 191830Z 17018KT 21/02 A2988 RMK A01 T02100018  RH  028%=      5-min Rain = 0
KPA1 191831Z 18019KT 21/02 A2988 RMK A01 T02110017  RH  028%=      5-min Rain = 0
KPA1 191832Z 18019KT 21/02 A2988 RMK A01 T02110017  RH  028%=      5-min Rain = 0
KPA1 191833Z 17022KT 21/02 A2988 RMK A01 T02110016  RH  027%=      5-min Rain = 0
KPA1 191834Z 18020G25KT 21/02 A2988 RMK A01 T02110015  RH  027%=      5-min Rain = 0
KPA1 191835Z 19017KT 21/02 A2988 RMK A01 T02110016  RH  027%=      5-min Rain = 0
KPA1 191836Z 18017KT 21/02 A2988 RMK A01 T02120018  RH  028%=      5-min Rain = 0
KPA1 191837Z 19017G22KT 21/02 A2988 RMK A01 T02120021  RH  028%=      5-min Rain = 0
KPA1 191838Z 18020G25KT 21/02 A2987 RMK A01 T02120018  RH  028%=      5-min Rain = 0
KPA1 191839Z 17016KT 21/02 A2987 RMK A01 T02130020  RH  028%=      5-min Rain = 0
KPA1 191840Z 17019KT 21/02 A2987 RMK A01 T02140019  RH  027%=      5-min Rain = 0
KPA1 191841Z 18017KT 21/02 A2987 RMK A01 T02140020  RH  028%=      5-min Rain = 0
KPA1 191842Z 19019KT 21/02 A2987 RMK A01 T02140016  RH  027%=      5-min Rain = 0
KPA1 191843Z 18018KT 21/02 A2987 RMK A01 T02140015  RH  027%=      5-min Rain = 0
KPA1 191844Z 18020KT 21/02 A2987 RMK A01 T02140017  RH  027%=      5-min Rain = 0
KPA1 191845Z 17020KT 22/02 A2987 RMK A01 T02150018  RH  027%=      5-min Rain = 0
KPA1 191846Z 17021KT 21/02 A2987 RMK A01 T02140015  RH  027%=      5-min Rain = 0
KPA1 191847Z 18019KT 21/02 A2987 RMK A01 T02130015  RH  027%=      5-min Rain = 0
KPA1 191848Z 18020KT 21/02 A2987 RMK A01 T02140016  RH  027%=      5-min Rain = 0
KPA1 191849Z 18018KT 21/02 A2987 RMK A01 T02140015  RH  027%=      5-min Rain = 0
KPA1 191850Z 18018G23KT 21/02 A2987 RMK A01 T02140016  RH  027%=      5-min Rain = 0
KPA1 191851Z 18016KT 22/02 A2987 RMK A01 T02150016  RH  027%=      5-min Rain = 0
KPA1 191852Z 18019KT 22/02 A2987 RMK A01 T02170018  RH  027%=      5-min Rain = 0
KPA1 191853Z 18020KT 22/02 A2987 RMK A01 T02180015  RH  026%=      5-min Rain = 0
KPA1 191854Z 18018KT 22/02 A2987 RMK A01 T02170015  RH  026%=      5-min Rain = 0
KPA1 191855Z 18017G23KT 22/02 A2987 RMK A01 T02170017  RH  027%=      5-min Rain = 0
KPA1 191856Z 18017G22KT 22/02 A2986 RMK A01 T02200018  RH  026%=      5-min Rain = 0
KPA1 191857Z 19019KT 22/02 A2986 RMK A01 T02210016  RH  026%=      5-min Rain = 0
KPA1 191858Z 18018KT 22/02 A2986 RMK A01 T02210015  RH  026%=      5-min Rain = 0
KPA1 191859Z 19016KT 22/02 A2986 RMK A01 T02190016  RH  026%=      5-min Rain = 0
KPA1 191900Z 17018KT 22/02 A2986 RMK A01 T02190018  RH  026%=      5-min Rain = 0
KPA1 191901Z 17020KT 22/02 A2986 RMK A01 T02200017  RH  026%=      5-min Rain = 0
KPA1 191902Z 17020KT 22/02 A2986 RMK A01 T02200015  RH  026%=      5-min Rain = 0
KPA1 191903Z 17019KT 22/01 A2986 RMK A01 T02190014  RH  026%=      5-min Rain = 0
KPA1 191904Z 18020KT 22/02 A2986 RMK A01 T02190015  RH  026%=      5-min Rain = 0
KPA1 191905Z 18019KT 22/01 A2986 RMK A01 T02180014  RH  026%=      5-min Rain = 0
KPA1 191906Z 18018KT 22/02 A2986 RMK A01 T02180016  RH  026%=      5-min Rain = 0
KPA1 191907Z 18018KT 22/02 A2986 RMK A01 T02180015  RH  026%=      5-min Rain = 0
KPA1 191908Z 17017KT 22/02 A2986 RMK A01 T02190016  RH  026%=      5-min Rain = 0
KPA1 191909Z 17018G25KT 22/02 A2985 RMK A01 T02200015  RH  026%=      5-min Rain = 0
KPA1 191910Z 18022KT 22/01 A2985 RMK A01 T02210012  RH  025%=      5-min Rain = 0
KPA1 191911Z 18021G26KT 22/01 A2985 RMK A01 T02200010  RH  025%=      5-min Rain = 0
KPA1 191912Z 18019KT 22/01 A2985 RMK A01 T02200009  RH  025%=      5-min Rain = 0
KPA1 191913Z 18021G26KT 22/01 A2985 RMK A01 T02210010  RH  025%=      5-min Rain = 0
KPA1 191914Z 18019KT 22/01 A2985 RMK A01 T02210007  RH  024%=      5-min Rain = 0
KPA1 191915Z 18019KT 22/01 A2985 RMK A01 T02210010  RH  025%=      5-min Rain = 0
KPA1 191916Z 18020KT 22/01 A2985 RMK A01 T02220010  RH  025%=      5-min Rain = 0
KPA1 191917Z 18017KT 22/01 A2985 RMK A01 T02220010  RH  024%=      5-min Rain = 0
KPA1 191918Z 18021G26KT 22/01 A2985 RMK A01 T02240010  RH  024%=      5-min Rain = 0
KPA1 191919Z 17021KT 23/01 A2985 RMK A01 T02250010  RH  024%=      5-min Rain = 0
KPA1 191920Z 18020G25KT 23/01 A2985 RMK A01 T02260010  RH  024%=      5-min Rain = 0
KPA1 191921Z 18022KT 23/01 A2985 RMK A01 T02270010  RH  024%=      5-min Rain = 0
KPA1 191922Z 18019KT 23/01 A2985 RMK A01 T02270009  RH  024%=      5-min Rain = 0
KPA1 191923Z 18018KT 23/01 A2985 RMK A01 T02250010  RH  024%=      5-min Rain = 0
KPA1 191924Z 19020KT 22/01 A2985 RMK A01 T02240010  RH  024%=      5-min Rain = 0
KPA1 191925Z 18017G23KT 23/01 A2984 RMK A01 T02250011  RH  024%=      5-min Rain = 0
KPA1 191926Z 18021KT 23/01 A2984 RMK A01 T02280012  RH  024%=      5-min Rain = 0
KPA1 191927Z 18023KT 23/01 A2984 RMK A01 T02290011  RH  024%=      5-min Rain = 0
KPA1 191928Z 18017G22KT 23/01 A2984 RMK A01 T02290009  RH  023%=      5-min Rain = 0
KPA1 191929Z 17018KT 23/01 A2984 RMK A01 T02280012  RH  024%=      5-min Rain = 0
KPA1 191930Z 17016KT 23/01 A2984 RMK A01 T02290013  RH  024%=      5-min Rain = 0
KPA1 191931Z 17017KT 23/02 A2984 RMK A01 T02310016  RH  024%=      5-min Rain = 0
KPA1 191932Z 17017G22KT 23/02 A2984 RMK A01 T02330015  RH  024%=      5-min Rain = 0
KPA1 191933Z 17014G20KT 23/02 A2984 RMK A01 T02340018  RH  024%=      5-min Rain = 0
KPA1 191934Z 18018KT 24/02 A2984 RMK A01 T02370018  RH  024%=      5-min Rain = 0
KPA1 191935Z 18017KT 24/01 A2984 RMK A01 T02360013  RH  023%=      5-min Rain = 0
KPA1 191936Z 17020KT 24/02 A2984 RMK A01 T02350016  RH  024%=      5-min Rain = 0
KPA1 191937Z 17020KT 23/01 A2984 RMK A01 T02340014  RH  023%=      5-min Rain = 0
KPA1 191938Z 18018KT 23/01 A2984 RMK A01 T02340013  RH  023%=      5-min Rain = 0
KPA1 191939Z 18016KT 23/01 A2984 RMK A01 T02340014  RH  023%=      5-min Rain = 0
KPA1 191940Z 18014KT 24/02 A2984 RMK A01 T02350015  RH  024%=      5-min Rain = 0
KPA1 191941Z 17014KT 24/01 A2984 RMK A01 T02350014  RH  023%=      5-min Rain = 0
KPA1 191942Z 18019G24KT 24/02 A2984 RMK A01 T02370018  RH  024%=      5-min Rain = 0
KPA1 191943Z 17020KT 24/02 A2984 RMK A01 T02360015  RH  023%=      5-min Rain = 0
KPA1 191944Z 17020KT 23/01 A2984 RMK A01 T02330012  RH  023%=      5-min Rain = 0
KPA1 191945Z 17019KT 23/01 A2984 RMK A01 T02320011  RH  023%=      5-min Rain = 0
KPA1 191946Z 17019G24KT 23/01 A2984 RMK A01 T02310014  RH  024%=      5-min Rain = 0
KPA1 191947Z 17018G24KT 23/02 A2984 RMK A01 T02330015  RH  024%=      5-min Rain = 0
KPA1 191948Z 18021G26KT 23/02 A2984 RMK A01 T02340015  RH  024%=      5-min Rain = 0
KPA1 191949Z 18021KT 23/01 A2984 RMK A01 T02340012  RH  023%=      5-min Rain = 0
KPA1 191950Z 17020KT 23/01 A2983 RMK A01 T02320013  RH  024%=      5-min Rain = 0
KPA1 191951Z 17019KT 23/01 A2983 RMK A01 T02310013  RH  024%=      5-min Rain = 0
KPA1 191952Z 17020KT 23/02 A2983 RMK A01 T02320015  RH  024%=      5-min Rain = 0
KPA1 191953Z 17021KT 23/01 A2983 RMK A01 T02310013  RH  024%=      5-min Rain = 0
KPA1 191954Z 17020KT 23/01 A2983 RMK A01 T02300013  RH  024%=      5-min Rain = 0
KPA1 191955Z 17017G22KT 23/01 A2983 RMK A01 T02290013  RH  024%=      5-min Rain = 0
KPA1 191956Z 18018G23KT 23/02 A2983 RMK A01 T02290016  RH  025%=      5-min Rain = 0
KPA1 191957Z 17020KT 23/01 A2983 RMK A01 T02280014  RH  024%=      5-min Rain = 0
KPA1 191958Z 17017KT 23/01 A2983 RMK A01 T02280013  RH  024%=      5-min Rain = 0
KPA1 191959Z 17018KT 23/01 A2983 RMK A01 T02290014  RH  024%=      5-min Rain = 0
KPA1 192000Z 17016KT 23/01 A2983 RMK A01 T02300014  RH  024%=      5-min Rain = 0
KPA1 192001Z 17018KT 23/02 A2982 RMK A01 T02320016  RH  024%=      5-min Rain = 0
KPA1 192002Z 16018G23KT 23/02 A2982 RMK A01 T02320017  RH  024%=      5-min Rain = 0
KPA1 192003Z 16020KT 23/02 A2982 RMK A01 T02320015  RH  024%=      5-min Rain = 0
KPA1 192004Z 16018G24KT 23/01 A2982 RMK A01 T02320013  RH  024%=      5-min Rain = 0
KPA1 192005Z 17017KT 23/01 A2982 RMK A01 T02320013  RH  024%=      5-min Rain = 0
KPA1 192006Z 18018KT 23/02 A2982 RMK A01 T02340017  RH  024%=      5-min Rain = 0
KPA1 192007Z 18019KT 24/01 A2982 RMK A01 T02350014  RH  023%=      5-min Rain = 0
KPA1 192008Z 18018KT 24/01 A2982 RMK A01 T02350012  RH  023%=      5-min Rain = 0
KPA1 192009Z 18019G24KT 24/01 A2982 RMK A01 T02350011  RH  023%=      5-min Rain = 0
KPA1 192010Z 18018KT 24/01 A2982 RMK A01 T02350011  RH  023%=      5-min Rain = 0
KPA1 192011Z 18016KT 24/01 A2982 RMK A01 T02360011  RH  023%=      5-min Rain = 0
KPA1 192012Z 16018KT 24/01 A2982 RMK A01 T02370012  RH  023%=      5-min Rain = 0
KPA1 192013Z 17020KT 24/01 A2982 RMK A01 T02370013  RH  023%=      5-min Rain = 0
KPA1 192014Z 18016G21KT 24/01 A2982 RMK A01 T02370013  RH  023%=      5-min Rain = 0
KPA1 192015Z 17015G22KT 24/02 A2982 RMK A01 T02370015  RH  023%=      5-min Rain = 0
KPA1 192016Z 17020KT 24/01 A2982 RMK A01 T02370014  RH  023%=      5-min Rain = 0
KPA1 192017Z 18018KT 24/01 A2982 RMK A01 T02360013  RH  023%=      5-min Rain = 0
KPA1 192018Z 17017G22KT 24/02 A2982 RMK A01 T02350015  RH  023%=      5-min Rain = 0
KPA1 192019Z 16021KT 24/01 A2981 RMK A01 T02350014  RH  023%=      5-min Rain = 0
KPA1 192020Z 16017KT 24/01 A2981 RMK A01 T02350013  RH  023%=      5-min Rain = 0
KPA1 192021Z 17016KT 24/02 A2981 RMK A01 T02350016  RH  024%=      5-min Rain = 0
KPA1 192022Z 17019KT 24/02 A2981 RMK A01 T02360018  RH  024%=      5-min Rain = 0
KPA1 192023Z 18017KT 24/02 A2981 RMK A01 T02370018  RH  024%=      5-min Rain = 0
KPA1 192024Z 18018KT 24/01 A2981 RMK A01 T02370013  RH  023%=      5-min Rain = 0
KPA1 192025Z 18020KT 24/01 A2981 RMK A01 T02370012  RH  023%=      5-min Rain = 0
KPA1 192026Z 17017KT 24/01 A2981 RMK A01 T02370012  RH  023%=      5-min Rain = 0
KPA1 192027Z 18018KT 24/01 A2981 RMK A01 T02370010  RH  022%=      5-min Rain = 0
KPA1 192028Z 18017KT 24/01 A2981 RMK A01 T02370012  RH  023%=      5-min Rain = 0
KPA1 192029Z 18019KT 24/01 A2981 RMK A01 T02380012  RH  023%=      5-min Rain = 0
KPA1 192030Z 17019KT 24/01 A2981 RMK A01 T02380010  RH  022%=      5-min Rain = 0
KPA1 192031Z 18019KT 24/01 A2981 RMK A01 T02380010  RH  022%=      5-min Rain = 0
KPA1 192032Z 18016G21KT 24/01 A2981 RMK A01 T02390012  RH  023%=      5-min Rain = 0
KPA1 192033Z 17020G25KT 24/02 A2981 RMK A01 T02420015  RH  023%=      5-min Rain = 0
KPA1 192034Z 18019KT 24/01 A2981 RMK A01 T02420014  RH  022%=      5-min Rain = 0
KPA1 192035Z 18021KT 24/01 A2981 RMK A01 T02410010  RH  022%=      5-min Rain = 0
KPA1 192036Z 18016G21KT 24/01 A2981 RMK A01 T02410010  RH  022%=      5-min Rain = 0
KPA1 192037Z 17020G25KT 24/01 A2981 RMK A01 T02410013  RH  022%=      5-min Rain = 0
KPA1 192038Z 17020KT 24/01 A2981 RMK A01 T02410013  RH  022%=      5-min Rain = 0
KPA1 192039Z 18018KT 24/01 A2981 RMK A01 T02410013  RH  022%=      5-min Rain = 0
KPA1 192040Z 18021KT 24/01 A2981 RMK A01 T02410011  RH  022%=      5-min Rain = 0
KPA1 192041Z 19015G20KT 24/01 A2981 RMK A01 T02400008  RH  022%=      5-min Rain = 0
KPA1 192042Z 19021KT 24/01 A2981 RMK A01 T02400010  RH  022%=      5-min Rain = 0
KPA1 192043Z 18021KT 24/00 A2981 RMK A01 T02400003  RH  021%=      5-min Rain = 0
KPA1 192044Z 18021KT 24/00 A2981 RMK A01 T02410002  RH  021%=      5-min Rain = 0
KPA1 192045Z 19022KT 24/00 A2981 RMK A01 T02410003  RH  021%=      5-min Rain = 0
KPA1 192046Z 18021KT 24/00 A2981 RMK A01 T02410002  RH  021%=      5-min Rain = 0
KPA1 192047Z 19020KT 24/00 A2981 RMK A01 T02410001  RH  021%=      5-min Rain = 0
KPA1 192048Z 18019KT 24/00 A298 RMK A01 T024000-0  RH  020%=      5-min Rain = 0
KPA1 192049Z 18023KT 24/00 A298 RMK A01 T02420001  RH  020%=      5-min Rain = 0
KPA1 192050Z 18020G25KT 24/M00 A298 RMK A01 T02431002  RH  020%=      5-min Rain = 0
KPA1 192051Z 18019KT 24/M00 A298 RMK A01 T02431001  RH  020%=      5-min Rain = 0
KPA1 192052Z 18020KT 24/M00 A298 RMK A01 T02441002  RH  020%=      5-min Rain = 0
KPA1 192053Z 18017G23KT 24/M00 A298 RMK A01 T02431001  RH  020%=      5-min Rain = 0
KPA1 192054Z 18021KT 24/00 A298 RMK A01 T02440000  RH  020%=      5-min Rain = 0
KPA1 192055Z 19021KT 24/M00 A298 RMK A01 T02441004  RH  019%=      5-min Rain = 0
KPA1 192056Z 19021G26KT 24/M00 A298 RMK A01 T02431002  RH  020%=      5-min Rain = 0
KPA1 192057Z 19019KT 24/00 A298 RMK A01 T024200-0  RH  020%=      5-min Rain = 0
KPA1 192058Z 19017KT 24/00 A298 RMK A01 T024200-0  RH  020%=      5-min Rain = 0
KPA1 192059Z 18020KT 24/00 A298 RMK A01 T02420001  RH  020%=      5-min Rain = 0
KPA1 192100Z 19021KT 24/M00 A298 RMK A01 T02421002  RH  020%=      5-min Rain = 0
KPA1 192101Z 19021KT 24/M00 A298 RMK A01 T02421001  RH  020%=      5-min Rain = 0
KPA1 192102Z 20022KT 24/00 A298 RMK A01 T024100-0  RH  020%=      5-min Rain = 0
KPA1 192103Z 19018KT 24/M00 A298 RMK A01 T02411001  RH  020%=      5-min Rain = 0
KPA1 192104Z 19015KT 24/00 A298 RMK A01 T02400000  RH  021%=      5-min Rain = 0
KPA1 192105Z 19018KT 24/00 A298 RMK A01 T02410003  RH  021%=      5-min Rain = 0
KPA1 192106Z 19016G22KT 24/00 A298 RMK A01 T02410002  RH  021%=      5-min Rain = 0
KPA1 192107Z 19019KT 24/00 A298 RMK A01 T02410004  RH  021%=      5-min Rain = 0
KPA1 192108Z 19022G27KT 24/00 A298 RMK A01 T024100-0  RH  020%=      5-min Rain = 0
KPA1 192109Z 19021KT 24/M00 A298 RMK A01 T02401001  RH  020%=      5-min Rain = 0
KPA1 192110Z 18020KT 24/M00 A298 RMK A01 T02411001  RH  020%=      5-min Rain = 0
KPA1 192111Z 19020KT 24/00 A298 RMK A01 T024100-0  RH  020%=      5-min Rain = 0
KPA1 192112Z 19018KT 24/00 A298 RMK A01 T02420001  RH  020%=      5-min Rain = 0
KPA1 192113Z 19017G22KT 24/00 A298 RMK A01 T02420001  RH  020%=      5-min Rain = 0
KPA1 192114Z 19017KT 24/00 A298 RMK A01 T02420002  RH  021%=      5-min Rain = 0
KPA1 192115Z 20019KT 24/00 A298 RMK A01 T02420003  RH  021%=      5-min Rain = 0
KPA1 192116Z 19015KT 24/01 A298 RMK A01 T02400006  RH  021%=      5-min Rain = 0
KPA1 192117Z 18014KT 24/01 A298 RMK A01 T02390009  RH  022%=      5-min Rain = 0
KPA1 192118Z 18017KT 24/01 A298 RMK A01 T02400006  RH  021%=      5-min Rain = 0
KPA1 192119Z 19017KT 24/00 A298 RMK A01 T02420002  RH  021%=      5-min Rain = 0
KPA1 192120Z 18020G25KT 24/00 A298 RMK A01 T02420002  RH  021%=      5-min Rain = 0
KPA1 192121Z 19022KT 24/00 A298 RMK A01 T024200-0  RH  020%=      5-min Rain = 0
KPA1 192122Z 20020KT 24/00 A298 RMK A01 T024100-0  RH  020%=      5-min Rain = 0
KPA1 192123Z 19019KT 24/00 A298 RMK A01 T02400003  RH  021%=      5-min Rain = 0
KPA1 192124Z 19018KT 24/01 A298 RMK A01 T02400006  RH  021%=      5-min Rain = 0
KPA1 192125Z 19019G24KT 24/00 A298 RMK A01 T02400003  RH  021%=      5-min Rain = 0
KPA1 192126Z 19017KT 24/01 A298 RMK A01 T02400005  RH  021%=      5-min Rain = 0
KPA1 192127Z 19019KT 24/01 A298 RMK A01 T02400006  RH  021%=      5-min Rain = 0
KPA1 192128Z 20019KT 24/00 A298 RMK A01 T02390002  RH  021%=      5-min Rain = 0
KPA1 192129Z 19019KT 24/00 A298 RMK A01 T02390002  RH  021%=      5-min Rain = 0
KPA1 192130Z 20021KT 24/00 A298 RMK A01 T02390001  RH  021%=      5-min Rain = 0
KPA1 192131Z 20019KT 24/M00 A298 RMK A01 T02391001  RH  020%=      5-min Rain = 0
KPA1 192132Z 19019G25KT 24/00 A298 RMK A01 T02390003  RH  021%=      5-min Rain = 0
KPA1 192133Z 18020KT 24/00 A298 RMK A01 T02380001  RH  021%=      5-min Rain = 0
KPA1 192134Z 18019G25KT 24/00 A298 RMK A01 T02380001  RH  021%=      5-min Rain = 0
KPA1 192135Z 19019G24KT 24/00 A298 RMK A01 T02380003  RH  021%=      5-min Rain = 0
KPA1 192136Z 20013KT 24/01 A298 RMK A01 T02370009  RH  022%=      5-min Rain = 0
KPA1 192137Z 19012KT 24/01 A298 RMK A01 T02360014  RH  023%=      5-min Rain = 0
KPA1 192138Z 19014G22KT 24/02 A298 RMK A01 T02350015  RH  024%=      5-min Rain = 0
KPA1 192139Z 19020KT 24/01 A298 RMK A01 T02350006  RH  022%=      5-min Rain = 0
KPA1 192140Z 19018KT 24/00 A298 RMK A01 T02360002  RH  021%=      5-min Rain = 0
KPA1 192141Z 20016KT 24/00 A298 RMK A01 T02370004  RH  021%=      5-min Rain = 0
KPA1 192142Z 20018G23KT 24/01 A298 RMK A01 T02370006  RH  022%=      5-min Rain = 0
KPA1 192143Z 20020KT 24/00 A298 RMK A01 T02370004  RH  021%=      5-min Rain = 0
KPA1 192144Z 20020KT 24/00 A298 RMK A01 T02370002  RH  021%=      5-min Rain = 0
KPA1 192145Z 20020KT 24/00 A298 RMK A01 T02360001  RH  021%=      5-min Rain = 0
KPA1 192146Z 20018KT 24/00 A298 RMK A01 T02360002  RH  021%=      5-min Rain = 0
KPA1 192147Z 20017G22KT 24/00 A298 RMK A01 T02360003  RH  021%=      5-min Rain = 0
KPA1 192148Z 20017KT 24/01 A298 RMK A01 T02360005  RH  022%=      5-min Rain = 0
KPA1 192149Z 20016KT 24/01 A298 RMK A01 T02350008  RH  022%=      5-min Rain = 0
KPA1 192150Z 20018KT 23/01 A298 RMK A01 T02340005  RH  022%=      5-min Rain = 0
KPA1 192151Z 20015KT 24/00 A298 RMK A01 T02350001  RH  021%=      5-min Rain = 0
KPA1 192152Z 20014KT 24/01 A298 RMK A01 T02360007  RH  022%=      5-min Rain = 0
KPA1 192153Z 19014KT 24/01 A298 RMK A01 T02350009  RH  022%=      5-min Rain = 0
KPA1 192154Z 19015KT 24/01 A2979 RMK A01 T02350007  RH  022%=      5-min Rain = 0
KPA1 192155Z 19018KT 24/00 A2979 RMK A01 T02350004  RH  022%=      5-min Rain = 0
KPA1 192156Z 19019KT 24/00 A2979 RMK A01 T02360002  RH  021%=      5-min Rain = 0
KPA1 192157Z 18019KT 24/00 A2979 RMK A01 T02360001  RH  021%=      5-min Rain = 0
KPA1 192158Z 19019KT 24/00 A2979 RMK A01 T02360002  RH  021%=      5-min Rain = 0
KPA1 192159Z 18017G22KT 24/00 A2979 RMK A01 T02360002  RH  021%=      5-min Rain = 0
KPA1 192200Z 18014G20KT 24/00 A2979 RMK A01 T02360002  RH  021%=      5-min Rain = 0
KPA1 192201Z 19016KT 24/01 A2979 RMK A01 T02360006  RH  022%=      5-min Rain = 0
KPA1 192202Z 19018KT 24/01 A2979 RMK A01 T02350005  RH  022%=      5-min Rain = 0
KPA1 192203Z 19020KT 24/00 A2979 RMK A01 T02350002  RH  021%=      5-min Rain = 0
KPA1 192204Z 19018KT 24/00 A2979 RMK A01 T02350003  RH  022%=      5-min Rain = 0
KPA1 192205Z 18016KT 23/01 A2979 RMK A01 T02340006  RH  022%=      5-min Rain = 0
KPA1 192206Z 19017KT 23/01 A2979 RMK A01 T02340005  RH  022%=      5-min Rain = 0
KPA1 192207Z 19014KT 23/00 A2979 RMK A01 T02340004  RH  022%=      5-min Rain = 0
KPA1 192208Z 19014KT 23/01 A2979 RMK A01 T02330006  RH  022%=      5-min Rain = 0
KPA1 192209Z 19020KT 23/01 A2979 RMK A01 T02330006  RH  022%=      5-min Rain = 0
KPA1 192210Z 19019KT 23/00 A2979 RMK A01 T023300-0  RH  021%=      5-min Rain = 0
KPA1 192211Z 19017G22KT 23/00 A2979 RMK A01 T023300-0  RH  021%=      5-min Rain = 0
KPA1 192212Z 19018KT 23/00 A2979 RMK A01 T02330001  RH  022%=      5-min Rain = 0
KPA1 192213Z 19019G24KT 23/00 A2979 RMK A01 T02320000  RH  022%=      5-min Rain = 0
KPA1 192214Z 18019KT 23/M00 A2979 RMK A01 T02321002  RH  021%=      5-min Rain = 0
KPA1 192215Z 19017G22KT 23/M00 A2979 RMK A01 T02321001  RH  021%=      5-min Rain = 0
KPA1 192216Z 19017KT 23/00 A2979 RMK A01 T02320003  RH  022%=      5-min Rain = 0
KPA1 192217Z 19017G22KT 23/00 A2979 RMK A01 T02310003  RH  022%=      5-min Rain = 0
KPA1 192218Z 19017KT 23/00 A2979 RMK A01 T02310003  RH  022%=      5-min Rain = 0
KPA1 192219Z 19016KT 23/00 A2979 RMK A01 T02300004  RH  022%=      5-min Rain = 0
KPA1 192220Z 19017KT 23/01 A2979 RMK A01 T02290005  RH  023%=      5-min Rain = 0
KPA1 192221Z 19017KT 23/01 A2979 RMK A01 T02280006  RH  023%=      5-min Rain = 0
KPA1 192222Z 19016KT 23/01 A2979 RMK A01 T02270005  RH  023%=      5-min Rain = 0
KPA1 192223Z 19017KT 23/01 A2979 RMK A01 T02250006  RH  023%=      5-min Rain = 0
KPA1 192224Z 19016KT 23/00 A2979 RMK A01 T02250004  RH  023%=      5-min Rain = 0
KPA1 192225Z 19018KT 23/01 A2979 RMK A01 T02250005  RH  023%=      5-min Rain = 0
KPA1 192226Z 19017KT 23/00 A2979 RMK A01 T02250003  RH  023%=      5-min Rain = 0
KPA1 192227Z 19016KT 23/00 A2979 RMK A01 T02260002  RH  023%=      5-min Rain = 0
KPA1 192228Z 19016G23KT 23/00 A2979 RMK A01 T02270002  RH  023%=      5-min Rain = 0
KPA1 192229Z 19014KT 23/00 A2979 RMK A01 T02270002  RH  023%=      5-min Rain = 0
KPA1 192230Z 19014KT 23/00 A2979 RMK A01 T02270003  RH  023%=      5-min Rain = 0
KPA1 192231Z 19016KT 23/00 A2979 RMK A01 T02260004  RH  023%=      5-min Rain = 0
KPA1 192232Z 19014KT 23/00 A2979 RMK A01 T02260003  RH  023%=      5-min Rain = 0
KPA1 192233Z 19016KT 23/01 A2979 RMK A01 T02260007  RH  023%=      5-min Rain = 0
KPA1 192234Z 19016KT 23/00 A2979 RMK A01 T02250002  RH  023%=      5-min Rain = 0
KPA1 192235Z 19013KT 23/01 A2979 RMK A01 T02250005  RH  023%=      5-min Rain = 0
KPA1 192236Z 19012KT 22/01 A2979 RMK A01 T02230008  RH  024%=      5-min Rain = 0
KPA1 192237Z 18014KT 22/01 A2979 RMK A01 T02220005  RH  024%=      5-min Rain = 0
KPA1 192238Z 18015G20KT 22/00 A2979 RMK A01 T02230003  RH  023%=      5-min Rain = 0
KPA1 192239Z 18016KT 22/00 A2979 RMK A01 T02240001  RH  023%=      5-min Rain = 0
KPA1 192240Z 18013KT 22/00 A2979 RMK A01 T02240001  RH  023%=      5-min Rain = 0
KPA1 192241Z 19014KT 22/00 A2979 RMK A01 T02230003  RH  023%=      5-min Rain = 0
KPA1 192242Z 19014G19KT 22/00 A2979 RMK A01 T02220004  RH  023%=      5-min Rain = 0
KPA1 192243Z 18014KT 22/00 A2979 RMK A01 T02210004  RH  024%=      5-min Rain = 0
KPA1 192244Z 19013KT 22/00 A2979 RMK A01 T02200003  RH  024%=      5-min Rain = 0
KPA1 192245Z 19016KT 22/00 A2979 RMK A01 T02200003  RH  024%=      5-min Rain = 0
KPA1 192246Z 19016KT 22/00 A2979 RMK A01 T02200001  RH  023%=      5-min Rain = 0
KPA1 192247Z 19017KT 22/00 A2979 RMK A01 T02200000  RH  023%=      5-min Rain = 0
KPA1 192248Z 19017KT 22/00 A2979 RMK A01 T02200000  RH  023%=      5-min Rain = 0
KPA1 192249Z 18016KT 22/00 A2979 RMK A01 T02190000  RH  023%=      5-min Rain = 0
KPA1 192250Z 19016KT 22/00 A2979 RMK A01 T021900-0  RH  023%=      5-min Rain = 0
KPA1 192251Z 19014KT 22/00 A2979 RMK A01 T02170000  RH  023%=      5-min Rain = 0
KPA1 192252Z 18014KT 22/00 A2979 RMK A01 T02160001  RH  024%=      5-min Rain = 0
KPA1 192253Z 19015KT 22/00 A2979 RMK A01 T02150001  RH  024%=      5-min Rain = 0
KPA1 192254Z 19016KT 22/00 A2979 RMK A01 T021500-0  RH  024%=      5-min Rain = 0
KPA1 192255Z 18014KT 22/00 A2979 RMK A01 T02150001  RH  024%=      5-min Rain = 0
KPA1 192256Z 19013KT 22/00 A2979 RMK A01 T02150002  RH  024%=      5-min Rain = 0
KPA1 192257Z 18013KT 21/00 A2979 RMK A01 T02140003  RH  025%=      5-min Rain = 0
KPA1 192258Z 18013KT 21/00 A2979 RMK A01 T02130004  RH  025%=      5-min Rain = 0
KPA1 192259Z 19013KT 21/00 A2979 RMK A01 T02120003  RH  025%=      5-min Rain = 0
KPA1 192300Z 19014KT 21/00 A2979 RMK A01 T02120003  RH  025%=      5-min Rain = 0
KPA1 192301Z 19014KT 21/00 A2979 RMK A01 T02110003  RH  025%=      5-min Rain = 0
KPA1 192302Z 19014KT 21/00 A2979 RMK A01 T02110002  RH  025%=      5-min Rain = 0
KPA1 192303Z 19013KT 21/00 A2979 RMK A01 T02120003  RH  025%=      5-min Rain = 0
KPA1 192304Z 18012KT 21/00 A2979 RMK A01 T02100003  RH  025%=      5-min Rain = 0
KPA1 192305Z 18013KT 21/00 A2979 RMK A01 T02090003  RH  025%=      5-min Rain = 0
KPA1 192306Z 18012KT 21/00 A2979 RMK A01 T02080004  RH  026%=      5-min Rain = 0
KPA1 192307Z 18012KT 21/00 A2979 RMK A01 T02060003  RH  026%=      5-min Rain = 0
KPA1 192308Z 18011KT 21/00 A2979 RMK A01 T02060002  RH  026%=      5-min Rain = 0
KPA1 192309Z 18011KT 21/00 A2979 RMK A01 T02050002  RH  026%=      5-min Rain = 0
KPA1 192310Z 18011KT 20/00 A2979 RMK A01 T02040002  RH  026%=      5-min Rain = 0
KPA1 192311Z 18011KT 20/00 A2979 RMK A01 T02030001  RH  026%=      5-min Rain = 0
KPA1 192312Z 18012KT 20/00 A2979 RMK A01 T02020002  RH  026%=      5-min Rain = 0
KPA1 192313Z 18010KT 20/00 A2979 RMK A01 T02000002  RH  027%=      5-min Rain = 0
KPA1 192314Z 17011KT 20/00 A2979 RMK A01 T01990003  RH  027%=      5-min Rain = 0
KPA1 192315Z 18011KT 20/01 A2979 RMK A01 T01970005  RH  028%=      5-min Rain = 0
KPA1 192316Z 17011KT 20/01 A2979 RMK A01 T01950006  RH  028%=      5-min Rain = 0
KPA1 192317Z 18011KT 19/01 A2979 RMK A01 T01930006  RH  029%=      5-min Rain = 0
KPA1 192318Z 18011KT 19/01 A2979 RMK A01 T01920007  RH  029%=      5-min Rain = 0
KPA1 192319Z 18011KT 19/01 A2979 RMK A01 T01910007  RH  029%=      5-min Rain = 0
KPA1 192320Z 17011KT 19/01 A2979 RMK A01 T01910008  RH  029%=      5-min Rain = 0
KPA1 192321Z 18011KT 19/01 A2979 RMK A01 T01890007  RH  029%=      5-min Rain = 0
KPA1 192322Z 18011KT 19/01 A2979 RMK A01 T01880006  RH  029%=      5-min Rain = 0
KPA1 192323Z 18011KT 19/01 A2979 RMK A01 T01880006  RH  029%=      5-min Rain = 0
KPA1 192324Z 18011KT 19/01 A2979 RMK A01 T01870005  RH  029%=      5-min Rain = 0
KPA1 192325Z 18011KT 19/00 A2979 RMK A01 T01860004  RH  029%=      5-min Rain = 0
KPA1 192326Z 17011KT 19/00 A2979 RMK A01 T01850004  RH  030%=      5-min Rain = 0
KPA1 192327Z 17011KT 18/00 A2979 RMK A01 T01830003  RH  030%=      5-min Rain = 0
KPA1 192328Z 17011KT 18/00 A2979 RMK A01 T01820003  RH  030%=      5-min Rain = 0
KPA1 192329Z 17011KT 18/00 A2979 RMK A01 T01800004  RH  030%=      5-min Rain = 0
KPA1 192330Z 17010KT 18/00 A2979 RMK A01 T01790004  RH  031%=      5-min Rain = 0
KPA1 192331Z 17010KT 18/00 A2979 RMK A01 T01770003  RH  031%=      5-min Rain = 0
KPA1 192332Z 17010KT 18/00 A2979 RMK A01 T01760004  RH  031%=      5-min Rain = 0
KPA1 192333Z 17010KT 17/00 A2979 RMK A01 T01740003  RH  031%=      5-min Rain = 0
KPA1 192334Z 17010KT 17/00 A2979 RMK A01 T01730003  RH  032%=      5-min Rain = 0
KPA1 192335Z 17010KT 17/00 A2979 RMK A01 T01720004  RH  032%=      5-min Rain = 0
KPA1 192336Z 16010KT 17/00 A2979 RMK A01 T01700004  RH  032%=      5-min Rain = 0
KPA1 192337Z 16010KT 17/00 A2979 RMK A01 T01680003  RH  033%=      5-min Rain = 0
KPA1 192338Z 16010KT 17/00 A2979 RMK A01 T01650003  RH  033%=      5-min Rain = 0
KPA1 192339Z 16011KT 16/00 A2979 RMK A01 T01640003  RH  033%=      5-min Rain = 0
KPA1 192340Z 17011KT 16/00 A2979 RMK A01 T01640002  RH  033%=      5-min Rain = 0
KPA1 192341Z 17010KT 16/00 A2979 RMK A01 T01630001  RH  033%=      5-min Rain = 0
KPA1 192342Z 17010KT 16/00 A2979 RMK A01 T01630001  RH  033%=      5-min Rain = 0
KPA1 192343Z 17010KT 16/00 A2979 RMK A01 T01630000  RH  033%=      5-min Rain = 0
KPA1 192344Z 16010KT 16/00 A2979 RMK A01 T016200-0  RH  033%=      5-min Rain = 0
KPA1 192345Z 16010KT 16/M00 A2979 RMK A01 T01611001  RH  033%=      5-min Rain = 0
KPA1 192346Z 16010KT 16/M00 A2979 RMK A01 T01601001  RH  033%=      5-min Rain = 0
KPA1 192347Z 16010KT 16/M00 A2979 RMK A01 T01591002  RH  033%=      5-min Rain = 0
KPA1 192348Z 16010KT 16/M00 A2979 RMK A01 T01581002  RH  034%=      5-min Rain = 0
KPA1 192349Z 16010KT 16/M00 A2979 RMK A01 T01571003  RH  034%=      5-min Rain = 0
KPA1 192350Z 16010KT 16/M00 A2979 RMK A01 T01571003  RH  034%=      5-min Rain = 0
KPA1 192351Z 16010KT 16/M00 A2979 RMK A01 T01571003  RH  034%=      5-min Rain = 0
KPA1 192352Z 16010KT 16/M00 A2979 RMK A01 T01571003  RH  034%=      5-min Rain = 0
KPA1 192353Z 16010KT 16/M00 A2979 RMK A01 T01571003  RH  034%=      5-min Rain = 0
KPA1 192354Z 16010KT 16/M00 A2979 RMK A01 T01561003  RH  034%=      5-min Rain = 0
KPA1 192355Z 16010KT 16/M00 A2979 RMK A01 T01561003  RH  034%=      5-min Rain = 0
KPA1 192356Z 16010KT 16/M00 A2979 RMK A01 T01551004  RH  034%=      5-min Rain = 0
KPA1 192357Z 16010KT 16/M00 A2979 RMK A01 T01551004  RH  034%=      5-min Rain = 0
KPA1 192358Z 16010KT 15/M01 A2979 RMK A01 T01541005  RH  034%=      5-min Rain = 0
KPA1 192359Z 16010KT 15/M01 A2979 RMK A01 T01531005  RH  034%=      5-min Rain = 0
KPA1 200000Z 16009KT 15/M01 A2979 RMK A01 T01531005  RH  034%=      5-min Rain = 0
KPA1 200001Z 16010KT 15/M01 A2979 RMK A01 T01521005  RH  034%=      5-min Rain = 0
KPA1 200002Z 16009KT 15/M01 A2979 RMK A01 T01511005  RH  034%=      5-min Rain = 0
KPA1 200003Z 16009KT 15/M01 A2979 RMK A01 T01491006  RH  035%=      5-min Rain = 0
KPA1 200004Z 16009KT 15/M01 A298 RMK A01 T01481006  RH  035%=      5-min Rain = 0
KPA1 200005Z 16009KT 15/M01 A298 RMK A01 T01471006  RH  035%=      5-min Rain = 0
KPA1 200006Z 16009KT 15/M01 A298 RMK A01 T01451006  RH  035%=      5-min Rain = 0
KPA1 200007Z 16009KT 14/M01 A298 RMK A01 T01441006  RH  036%=      5-min Rain = 0
KPA1 200008Z 16009KT 14/M01 A298 RMK A01 T01431006  RH  036%=      5-min Rain = 0
KPA1 200009Z 16009KT 14/M01 A298 RMK A01 T01421006  RH  036%=      5-min Rain = 0
KPA1 200010Z 16009KT 14/M01 A298 RMK A01 T01411006  RH  036%=      5-min Rain = 0
KPA1 200011Z 16009KT 14/M01 A298 RMK A01 T01391007  RH  037%=      5-min Rain = 0
KPA1 200012Z 16009KT 14/M01 A298 RMK A01 T01381007  RH  037%=      5-min Rain = 0
KPA1 200013Z 16009KT 14/M01 A298 RMK A01 T01371006  RH  037%=      5-min Rain = 0
KPA1 200014Z 16009KT 14/M01 A298 RMK A01 T01371006  RH  037%=      5-min Rain = 0
KPA1 200015Z 16010KT 14/M01 A298 RMK A01 T01361006  RH  037%=      5-min Rain = 0
KPA1 200016Z 16010KT 14/M01 A298 RMK A01 T01371006  RH  037%=      5-min Rain = 0
KPA1 200017Z 16010KT 14/M01 A298 RMK A01 T01371005  RH  037%=      5-min Rain = 0
KPA1 200018Z 16010KT 14/M01 A298 RMK A01 T01371006  RH  037%=      5-min Rain = 0
KPA1 200019Z 16010KT 14/M01 A298 RMK A01 T01371006  RH  037%=      5-min Rain = 0
KPA1 200020Z 16010KT 14/M01 A298 RMK A01 T01361006  RH  038%=      5-min Rain = 0
KPA1 200021Z 16010KT 14/M01 A298 RMK A01 T01361006  RH  038%=      5-min Rain = 0
KPA1 200022Z 16010KT 14/M01 A298 RMK A01 T01351006  RH  038%=      5-min Rain = 0
KPA1 200023Z 16010KT 14/M01 A298 RMK A01 T01351006  RH  038%=      5-min Rain = 0
KPA1 200024Z 16010KT 13/M01 A298 RMK A01 T01341006  RH  038%=      5-min Rain = 0
KPA1 200025Z 16010KT 13/M01 A298 RMK A01 T01331006  RH  038%=      5-min Rain = 0
KPA1 200026Z 16010KT 13/M01 A298 RMK A01 T01331006  RH  038%=      5-min Rain = 0
KPA1 200027Z 16010KT 13/M01 A298 RMK A01 T01331006  RH  038%=      5-min Rain = 0
KPA1 200028Z 16010KT 13/M01 A298 RMK A01 T01331005  RH  039%=      5-min Rain = 0
KPA1 200029Z 16010KT 13/M01 A298 RMK A01 T01331005  RH  039%=      5-min Rain = 0
KPA1 200030Z 16010KT 13/M01 A298 RMK A01 T01331005  RH  039%=      5-min Rain = 0
KPA1 200031Z 16010KT 14/M01 A298 RMK A01 T01351005  RH  038%=      5-min Rain = 0
KPA1 200032Z 16011KT 14/M00 A298 RMK A01 T01371004  RH  038%=      5-min Rain = 0
KPA1 200033Z 16011KT 14/M00 A298 RMK A01 T01391004  RH  038%=      5-min Rain = 0
KPA1 200034Z 16011KT 14/M00 A298 RMK A01 T01401004  RH  037%=      5-min Rain = 0
KPA1 200035Z 16011KT 14/M00 A298 RMK A01 T01411004  RH  037%=      5-min Rain = 0
KPA1 200036Z 16011KT 14/M00 A298 RMK A01 T01421004  RH  037%=      5-min Rain = 0
KPA1 200037Z 16011KT 14/M00 A298 RMK A01 T01431004  RH  036%=      5-min Rain = 0
KPA1 200038Z 16011KT 14/M00 A298 RMK A01 T01441004  RH  036%=      5-min Rain = 0
KPA1 200039Z 16011KT 14/M00 A298 RMK A01 T01441004  RH  036%=      5-min Rain = 0
KPA1 200040Z 16011KT 15/M00 A298 RMK A01 T01451004  RH  036%=      5-min Rain = 0
KPA1 200041Z 16011KT 15/M00 A298 RMK A01 T01461004  RH  036%=      5-min Rain = 0
KPA1 200042Z 16011KT 15/M00 A298 RMK A01 T01461004  RH  036%=      5-min Rain = 0
KPA1 200043Z 16011KT 15/M00 A298 RMK A01 T01461004  RH  036%=      5-min Rain = 0
KPA1 200044Z 16011KT 15/M00 A298 RMK A01 T01471004  RH  035%=      5-min Rain = 0
KPA1 200045Z 16011KT 15/M00 A298 RMK A01 T01481004  RH  035%=      5-min Rain = 0
KPA1 200046Z 16011KT 15/M00 A298 RMK A01 T01491004  RH  035%=      5-min Rain = 0
KPA1 200047Z 16011KT 15/M00 A298 RMK A01 T01491004  RH  035%=      5-min Rain = 0
KPA1 200048Z 16011KT 15/M01 A298 RMK A01 T01491005  RH  035%=      5-min Rain = 0
KPA1 200049Z 16011KT 15/M01 A298 RMK A01 T01491005  RH  035%=      5-min Rain = 0
KPA1 200050Z 16011KT 15/M01 A298 RMK A01 T01481005  RH  035%=      5-min Rain = 0
KPA1 200051Z 16011KT 15/M01 A298 RMK A01 T01471005  RH  035%=      5-min Rain = 0
KPA1 200052Z 16011KT 15/M01 A298 RMK A01 T01461005  RH  035%=      5-min Rain = 0
KPA1 200053Z 16011KT 15/M01 A298 RMK A01 T01461005  RH  036%=      5-min Rain = 0
KPA1 200054Z 16011KT 15/M01 A298 RMK A01 T01461005  RH  036%=      5-min Rain = 0
KPA1 200055Z 16011KT 15/M01 A298 RMK A01 T01461005  RH  036%=      5-min Rain = 0
KPA1 200056Z 16011KT 15/M01 A298 RMK A01 T01451005  RH  036%=      5-min Rain = 0
KPA1 200057Z 16011KT 14/M01 A298 RMK A01 T01441005  RH  036%=      5-min Rain = 0
KPA1 200058Z 16011KT 14/M01 A298 RMK A01 T01441005  RH  036%=      5-min Rain = 0
KPA1 200059Z 16011KT 14/M01 A298 RMK A01 T01431005  RH  036%=      5-min Rain = 0
KPA1 200100Z 16011KT 14/M01 A298 RMK A01 T01421005  RH  036%=      5-min Rain = 0
KPA1 200101Z 16011KT 14/M01 A298 RMK A01 T01421005  RH  036%=      5-min Rain = 0
KPA1 200102Z 16011KT 14/M00 A298 RMK A01 T01421004  RH  036%=      5-min Rain = 0
KPA1 200103Z 16012KT 14/M01 A298 RMK A01 T01421005  RH  036%=      5-min Rain = 0
KPA1 200104Z 16012KT 14/M01 A298 RMK A01 T01421005  RH  036%=      5-min Rain = 0
KPA1 200105Z 16012KT 14/M00 A298 RMK A01 T01431004  RH  036%=      5-min Rain = 0
KPA1 200106Z 16012KT 14/M00 A298 RMK A01 T01441004  RH  036%=      5-min Rain = 0
KPA1 200107Z 16013KT 14/M00 A298 RMK A01 T01441004  RH  036%=      5-min Rain = 0
KPA1 200108Z 16013KT 14/M00 A298 RMK A01 T01441004  RH  036%=      5-min Rain = 0
KPA1 200109Z 16013KT 15/M00 A298 RMK A01 T01451004  RH  036%=      5-min Rain = 0
KPA1 200110Z 16013KT 15/M00 A298 RMK A01 T01461003  RH  036%=      5-min Rain = 0
KPA1 200111Z 16013KT 15/M00 A298 RMK A01 T01461003  RH  036%=      5-min Rain = 0
KPA1 200112Z 16014KT 15/M00 A298 RMK A01 T01471003  RH  036%=      5-min Rain = 0
KPA1 200113Z 16013KT 15/M00 A298 RMK A01 T01471003  RH  036%=      5-min Rain = 0
KPA1 200114Z 16013KT 15/M00 A298 RMK A01 T01471003  RH  036%=      5-min Rain = 0
KPA1 200115Z 16013KT 15/M00 A298 RMK A01 T01471003  RH  036%=      5-min Rain = 0
KPA1 200116Z 16013KT 15/M00 A298 RMK A01 T01471003  RH  036%=      5-min Rain = 0
KPA1 200117Z 16012KT 15/M00 A298 RMK A01 T01471003  RH  036%=      5-min Rain = 0
KPA1 200118Z 16012KT 15/M00 A298 RMK A01 T01461003  RH  036%=      5-min Rain = 0
KPA1 200119Z 16012KT 15/M00 A298 RMK A01 T01451003  RH  036%=      5-min Rain = 0
KPA1 200120Z 16012KT 15/M00 A298 RMK A01 T01451003  RH  036%=      5-min Rain = 0
KPA1 200121Z 16012KT 15/M00 A298 RMK A01 T01451003  RH  036%=      5-min Rain = 0
KPA1 200122Z 16012KT 14/M00 A298 RMK A01 T01441003  RH  036%=      5-min Rain = 0
KPA1 200123Z 16012KT 14/M00 A298 RMK A01 T01431003  RH  037%=      5-min Rain = 0
KPA1 200124Z 16011KT 14/M00 A298 RMK A01 T01431003  RH  037%=      5-min Rain = 0
KPA1 200125Z 16011KT 14/M00 A298 RMK A01 T01421003  RH  037%=      5-min Rain = 0
KPA1 200126Z 16011KT 14/M00 A298 RMK A01 T01411003  RH  037%=      5-min Rain = 0
KPA1 200127Z 15011KT 14/M00 A298 RMK A01 T01411003  RH  037%=      5-min Rain = 0
KPA1 200128Z 16012KT 14/M00 A298 RMK A01 T01411002  RH  037%=      5-min Rain = 0
KPA1 200129Z 16011KT 14/M00 A298 RMK A01 T01411002  RH  037%=      5-min Rain = 0
KPA1 200130Z 15012KT 14/M00 A298 RMK A01 T01411002  RH  038%=      5-min Rain = 0
KPA1 200131Z 16012KT 14/M00 A298 RMK A01 T01401002  RH  038%=      5-min Rain = 0
KPA1 200132Z 16011KT 14/M00 A298 RMK A01 T01411001  RH  038%=      5-min Rain = 0
KPA1 200133Z 16012KT 14/M00 A298 RMK A01 T01401001  RH  038%=      5-min Rain = 0
KPA1 200134Z 16012KT 14/M00 A298 RMK A01 T01401001  RH  038%=      5-min Rain = 0
KPA1 200135Z 16012KT 14/M00 A298 RMK A01 T01401001  RH  038%=      5-min Rain = 0
KPA1 200136Z 16012KT 14/M00 A298 RMK A01 T01401001  RH  038%=      5-min Rain = 0
KPA1 200137Z 16012KT 14/00 A298 RMK A01 T014000-0  RH  038%=      5-min Rain = 0
KPA1 200138Z 16011KT 14/00 A298 RMK A01 T014000-0  RH  038%=      5-min Rain = 0
KPA1 200139Z 16012KT 14/00 A298 RMK A01 T014000-0  RH  038%=      5-min Rain = 0
KPA1 200140Z 16012KT 14/00 A298 RMK A01 T01400000  RH  038%=      5-min Rain = 0
KPA1 200141Z 16012KT 14/00 A298 RMK A01 T01400001  RH  038%=      5-min Rain = 0
KPA1 200142Z 16011KT 14/00 A298 RMK A01 T01400001  RH  039%=      5-min Rain = 0
KPA1 200143Z 16012KT 14/00 A298 RMK A01 T01390001  RH  039%=      5-min Rain = 0
KPA1 200144Z 16011KT 14/00 A298 RMK A01 T01400001  RH  039%=      5-min Rain = 0
KPA1 200145Z 16011KT 14/00 A298 RMK A01 T01390001  RH  039%=      5-min Rain = 0
KPA1 200146Z 16012KT 14/00 A298 RMK A01 T01390001  RH  039%=      5-min Rain = 0
KPA1 200147Z 16012KT 14/00 A298 RMK A01 T01390001  RH  039%=      5-min Rain = 0
KPA1 200148Z 16012KT 14/00 A298 RMK A01 T01390002  RH  039%=      5-min Rain = 0
KPA1 200149Z 16011KT 14/00 A298 RMK A01 T01390002  RH  039%=      5-min Rain = 0
KPA1 200150Z 16012KT 14/00 A298 RMK A01 T01380002  RH  039%=      5-min Rain = 0
KPA1 200151Z 16011KT 14/00 A298 RMK A01 T01380002  RH  039%=      5-min Rain = 0
KPA1 200152Z 15011KT 14/00 A298 RMK A01 T01380003  RH  039%=      5-min Rain = 0
KPA1 200153Z 15011KT 14/00 A298 RMK A01 T01380003  RH  040%=      5-min Rain = 0
KPA1 200154Z 15011KT 14/00 A298 RMK A01 T01380003  RH  040%=      5-min Rain = 0
KPA1 200155Z 15013KT 14/00 A298 RMK A01 T01370003  RH  040%=      5-min Rain = 0
KPA1 200156Z 15012KT 14/00 A298 RMK A01 T01370003  RH  040%=      5-min Rain = 0
KPA1 200157Z 15012KT 14/00 A298 RMK A01 T01370003  RH  040%=      5-min Rain = 0
KPA1 200158Z 15012KT 14/00 A298 RMK A01 T01370004  RH  040%=      5-min Rain = 0
KPA1 200159Z 15013KT 14/00 A298 RMK A01 T01390004  RH  040%=      5-min Rain = 0
KPA1 200200Z 15012KT 14/01 A298 RMK A01 T01390005  RH  040%=      5-min Rain = 0
KPA1 200201Z 16011KT 14/00 A298 RMK A01 T01390004  RH  040%=      5-min Rain = 0
KPA1 200202Z 15012KT 14/01 A298 RMK A01 T01390005  RH  040%=      5-min Rain = 0
KPA1 200203Z 15011KT 14/01 A298 RMK A01 T01390005  RH  040%=      5-min Rain = 0
KPA1 200204Z 16011KT 14/01 A298 RMK A01 T01390005  RH  040%=      5-min Rain = 0
KPA1 200205Z 15012KT 14/01 A298 RMK A01 T01390006  RH  040%=      5-min Rain = 0
KPA1 200206Z 15012KT 14/01 A298 RMK A01 T01390006  RH  040%=      5-min Rain = 0
KPA1 200207Z 15012KT 14/01 A298 RMK A01 T01390006  RH  040%=      5-min Rain = 0
KPA1 200208Z 15012KT 14/01 A298 RMK A01 T01390005  RH  040%=      5-min Rain = 0
KPA1 200209Z 15012KT 14/01 A298 RMK A01 T01400006  RH  040%=      5-min Rain = 0
KPA1 200210Z 15013KT 14/01 A298 RMK A01 T01420007  RH  040%=      5-min Rain = 0
KPA1 200211Z 16012KT 14/01 A298 RMK A01 T01420007  RH  040%=      5-min Rain = 0
KPA1 200212Z 15013KT 14/01 A298 RMK A01 T01430007  RH  040%=      5-min Rain = 0
KPA1 200213Z 15012KT 14/01 A298 RMK A01 T01430007  RH  040%=      5-min Rain = 0
KPA1 200214Z 15013KT 14/01 A298 RMK A01 T01440007  RH  039%=      5-min Rain = 0
KPA1 200215Z 15013KT 14/01 A298 RMK A01 T01440008  RH  039%=      5-min Rain = 0
KPA1 200216Z 15012KT 15/01 A298 RMK A01 T01450008  RH  039%=      5-min Rain = 0
KPA1 200217Z 15011KT 15/01 A298 RMK A01 T01460008  RH  039%=      5-min Rain = 0
KPA1 200218Z 14011KT 15/01 A298 RMK A01 T01450008  RH  039%=      5-min Rain = 0
KPA1 200219Z 14010KT 14/01 A298 RMK A01 T01440008  RH  040%=      5-min Rain = 0
KPA1 200220Z 15010KT 14/01 A298 RMK A01 T01420008  RH  040%=      5-min Rain = 0
KPA1 200221Z 15010KT 14/01 A298 RMK A01 T01410008  RH  040%=      5-min Rain = 0
KPA1 200222Z 15010KT 14/01 A298 RMK A01 T01400008  RH  041%=      5-min Rain = 0
KPA1 200223Z 14010KT 14/01 A298 RMK A01 T01390008  RH  041%=      5-min Rain = 0
KPA1 200224Z 15011KT 14/01 A298 RMK A01 T01390009  RH  041%=      5-min Rain = 0
KPA1 200225Z 14010KT 14/01 A298 RMK A01 T01380009  RH  041%=      5-min Rain = 0
KPA1 200226Z 15010KT 14/01 A298 RMK A01 T01370009  RH  042%=      5-min Rain = 0
KPA1 200227Z 15011KT 14/01 A298 RMK A01 T01350009  RH  042%=      5-min Rain = 0
KPA1 200228Z 15010KT 13/01 A298 RMK A01 T01340009  RH  042%=      5-min Rain = 0
KPA1 200229Z 15011KT 13/01 A298 RMK A01 T01340009  RH  043%=      5-min Rain = 0
KPA1 200230Z 15011KT 13/01 A298 RMK A01 T01340010  RH  043%=      5-min Rain = 0
KPA1 200231Z 15011KT 13/01 A298 RMK A01 T01340010  RH  043%=      5-min Rain = 0
KPA1 200232Z 15010KT 14/01 A298 RMK A01 T01350010  RH  042%=      5-min Rain = 0
KPA1 200233Z 15010KT 14/01 A298 RMK A01 T01350009  RH  042%=      5-min Rain = 0
KPA1 200234Z 15010KT 14/01 A298 RMK A01 T01350009  RH  042%=      5-min Rain = 0
KPA1 200235Z 15009KT 13/01 A298 RMK A01 T01340009  RH  042%=      5-min Rain = 0
KPA1 200236Z 15010KT 13/01 A298 RMK A01 T01340009  RH  042%=      5-min Rain = 0
KPA1 200237Z 15011KT 13/01 A298 RMK A01 T01340010  RH  043%=      5-min Rain = 0
KPA1 200238Z 15010KT 13/01 A298 RMK A01 T01340010  RH  043%=      5-min Rain = 0
KPA1 200239Z 15011KT 14/01 A298 RMK A01 T01350010  RH  042%=      5-min Rain = 0
KPA1 200240Z 15011KT 14/01 A298 RMK A01 T01360010  RH  042%=      5-min Rain = 0
KPA1 200241Z 15011KT 14/01 A298 RMK A01 T01350010  RH  042%=      5-min Rain = 0
KPA1 200242Z 15010KT 14/01 A298 RMK A01 T01350010  RH  042%=      5-min Rain = 0
KPA1 200243Z 15011KT 14/01 A298 RMK A01 T01350010  RH  042%=      5-min Rain = 0
KPA1 200244Z 15011KT 14/01 A298 RMK A01 T01350010  RH  042%=      5-min Rain = 0
KPA1 200245Z 15011KT 14/01 A298 RMK A01 T01350010  RH  042%=      5-min Rain = 0
KPA1 200246Z 15010KT 14/01 A298 RMK A01 T01350010  RH  042%=      5-min Rain = 0
KPA1 200247Z 15011KT 14/01 A298 RMK A01 T01350011  RH  043%=      5-min Rain = 0
KPA1 200248Z 15010KT 14/01 A298 RMK A01 T01350011  RH  043%=      5-min Rain = 0
KPA1 200249Z 15010KT 14/01 A298 RMK A01 T01350011  RH  043%=      5-min Rain = 0
KPA1 200250Z 15010KT 14/01 A298 RMK A01 T01350011  RH  043%=      5-min Rain = 0
KPA1 200251Z 16010KT 14/01 A298 RMK A01 T01350012  RH  043%=      5-min Rain = 0
KPA1 200252Z 15011KT 13/01 A298 RMK A01 T01340011  RH  043%=      5-min Rain = 0
KPA1 200253Z 15011KT 13/01 A298 RMK A01 T01340012  RH  043%=      5-min Rain = 0
KPA1 200254Z 15011KT 14/01 A298 RMK A01 T01350012  RH  043%=      5-min Rain = 0
KPA1 200255Z 15011KT 13/01 A298 RMK A01 T01340012  RH  043%=      5-min Rain = 0
KPA1 200256Z 15012KT 13/01 A298 RMK A01 T01340012  RH  044%=      5-min Rain = 0
KPA1 200257Z 15012KT 13/01 A298 RMK A01 T01330012  RH  044%=      5-min Rain = 0
KPA1 200258Z 15012KT 13/01 A298 RMK A01 T01340013  RH  044%=      5-min Rain = 0
KPA1 200259Z 16011KT 13/01 A298 RMK A01 T01330013  RH  044%=      5-min Rain = 0
KPA1 200300Z 16012KT 13/01 A298 RMK A01 T01330013  RH  044%=      5-min Rain = 0
KPA1 200301Z 15011KT 13/01 A298 RMK A01 T01320013  RH  044%=      5-min Rain = 0
KPA1 200302Z 16011KT 13/01 A298 RMK A01 T01320013  RH  044%=      5-min Rain = 0
KPA1 200303Z 16012KT 13/01 A298 RMK A01 T01310013  RH  045%=      5-min Rain = 0
KPA1 200304Z 16012KT 13/01 A298 RMK A01 T01310014  RH  045%=      5-min Rain = 0
KPA1 200305Z 15012KT 13/01 A298 RMK A01 T01310014  RH  045%=      5-min Rain = 0
KPA1 200306Z 16012KT 13/01 A298 RMK A01 T01310014  RH  045%=      5-min Rain = 0
KPA1 200307Z 15012KT 13/02 A298 RMK A01 T01320015  RH  045%=      5-min Rain = 0
KPA1 200308Z 16011KT 13/02 A298 RMK A01 T01330015  RH  045%=      5-min Rain = 0
KPA1 200309Z 15011KT 13/02 A298 RMK A01 T01330015  RH  045%=      5-min Rain = 0
KPA1 200310Z 15012KT 13/02 A298 RMK A01 T01320015  RH  045%=      5-min Rain = 0
KPA1 200311Z 15011KT 13/02 A298 RMK A01 T01310015  RH  045%=      5-min Rain = 0
KPA1 200312Z 15012KT 13/02 A298 RMK A01 T01300015  RH  045%=      5-min Rain = 0
KPA1 200313Z 15011KT 13/02 A298 RMK A01 T01300015  RH  045%=      5-min Rain = 0
KPA1 200314Z 15011KT 13/02 A298 RMK A01 T01300015  RH  046%=      5-min Rain = 0
KPA1 200315Z 15011KT 13/02 A298 RMK A01 T01300016  RH  046%=      5-min Rain = 0
KPA1 200316Z 15011KT 13/02 A298 RMK A01 T01300015  RH  046%=      5-min Rain = 0
KPA1 200317Z 15011KT 13/02 A298 RMK A01 T01290016  RH  046%=      5-min Rain = 0
KPA1 200318Z 15011KT 13/02 A298 RMK A01 T01290016  RH  046%=      5-min Rain = 0
KPA1 200319Z 15011KT 13/02 A298 RMK A01 T01290016  RH  046%=      5-min Rain = 0
KPA1 200320Z 15010KT 13/02 A298 RMK A01 T01290016  RH  046%=      5-min Rain = 0
KPA1 200321Z 15011KT 13/02 A298 RMK A01 T01280016  RH  046%=      5-min Rain = 0
KPA1 200322Z 15011KT 13/02 A298 RMK A01 T01280016  RH  047%=      5-min Rain = 0
KPA1 200323Z 15011KT 13/02 A298 RMK A01 T01270016  RH  047%=      5-min Rain = 0
KPA1 200324Z 15010KT 13/02 A298 RMK A01 T01260017  RH  047%=      5-min Rain = 0
KPA1 200325Z 15009KT 13/02 A298 RMK A01 T01250016  RH  047%=      5-min Rain = 0
KPA1 200326Z 15010KT 12/02 A298 RMK A01 T01240016  RH  048%=      5-min Rain = 0
KPA1 200327Z 15010KT 12/02 A298 RMK A01 T01230016  RH  048%=      5-min Rain = 0
KPA1 200328Z 15010KT 12/02 A298 RMK A01 T01210016  RH  048%=      5-min Rain = 0
KPA1 200329Z 15010KT 12/02 A298 RMK A01 T01210016  RH  049%=      5-min Rain = 0
KPA1 200330Z 15010KT 12/02 A298 RMK A01 T01210017  RH  049%=      5-min Rain = 0
KPA1 200331Z 15010KT 12/02 A298 RMK A01 T01210017  RH  049%=      5-min Rain = 0
KPA1 200332Z 15010KT 12/02 A298 RMK A01 T01200016  RH  049%=      5-min Rain = 0
KPA1 200333Z 15010KT 12/02 A298 RMK A01 T01200017  RH  049%=      5-min Rain = 0
KPA1 200334Z 15010KT 12/02 A298 RMK A01 T01200017  RH  049%=      5-min Rain = 0
KPA1 200335Z 16010KT 12/02 A298 RMK A01 T01190017  RH  049%=      5-min Rain = 0
KPA1 200336Z 16010KT 12/02 A2981 RMK A01 T01190017  RH  050%=      5-min Rain = 0
KPA1 200337Z 16010KT 12/02 A2981 RMK A01 T01190017  RH  050%=      5-min Rain = 0
KPA1 200338Z 16009KT 12/02 A2981 RMK A01 T01190017  RH  050%=      5-min Rain = 0
KPA1 200339Z 16010KT 12/02 A2981 RMK A01 T01180017  RH  050%=      5-min Rain = 0
KPA1 200340Z 16010KT 12/02 A2981 RMK A01 T01170017  RH  050%=      5-min Rain = 0
KPA1 200341Z 16010KT 12/02 A2981 RMK A01 T01160017  RH  050%=      5-min Rain = 0
KPA1 200342Z 16010KT 12/02 A2981 RMK A01 T01160017  RH  051%=      5-min Rain = 0
KPA1 200343Z 16010KT 12/02 A2981 RMK A01 T01160017  RH  051%=      5-min Rain = 0
KPA1 200344Z 16010KT 12/02 A2981 RMK A01 T01160017  RH  051%=      5-min Rain = 0
KPA1 200345Z 16009KT 12/02 A2981 RMK A01 T01150017  RH  051%=      5-min Rain = 0
KPA1 200346Z 16010KT 12/02 A2981 RMK A01 T01150017  RH  051%=      5-min Rain = 0
KPA1 200347Z 16009KT 11/02 A2981 RMK A01 T01140017  RH  051%=      5-min Rain = 0
KPA1 200348Z 16010KT 11/02 A2981 RMK A01 T01130017  RH  051%=      5-min Rain = 0
KPA1 200349Z 16010KT 11/02 A2981 RMK A01 T01120016  RH  052%=      5-min Rain = 0
KPA1 200350Z 16010KT 11/02 A2981 RMK A01 T01120017  RH  052%=      5-min Rain = 0
KPA1 200351Z 16009KT 11/02 A2981 RMK A01 T01110017  RH  052%=      5-min Rain = 0
KPA1 200352Z 16009KT 11/02 A2981 RMK A01 T01100016  RH  052%=      5-min Rain = 0
KPA1 200353Z 16009KT 11/02 A2981 RMK A01 T01090016  RH  053%=      5-min Rain = 0
KPA1 200354Z 16009KT 11/02 A2981 RMK A01 T01080016  RH  053%=      5-min Rain = 0
KPA1 200355Z 16008KT 11/02 A2981 RMK A01 T01070016  RH  053%=      5-min Rain = 0
KPA1 200356Z 16008KT 11/02 A2981 RMK A01 T01060016  RH  054%=      5-min Rain = 0
KPA1 200357Z 16008KT 11/02 A2981 RMK A01 T01050015  RH  054%=      5-min Rain = 0
KPA1 200358Z 16008KT 11/02 A2981 RMK A01 T01050016  RH  054%=      5-min Rain = 0
KPA1 200359Z 16008KT 10/02 A2981 RMK A01 T01040015  RH  054%=      5-min Rain = 0
KPA1 200400Z 16008KT 10/02 A2981 RMK A01 T01030015  RH  054%=      5-min Rain = 0
KPA1 200401Z 16009KT 10/02 A2981 RMK A01 T01030015  RH  055%=      5-min Rain = 0
KPA1 200402Z 16009KT 10/02 A2981 RMK A01 T01030016  RH  055%=      5-min Rain = 0
KPA1 200403Z 16009KT 10/02 A2981 RMK A01 T01020016  RH  055%=      5-min Rain = 0
KPA1 200404Z 16009KT 10/02 A2981 RMK A01 T01030016  RH  055%=      5-min Rain = 0
KPA1 200405Z 16009KT 10/02 A2981 RMK A01 T01030016  RH  055%=      5-min Rain = 0
KPA1 200406Z 16009KT 10/02 A2981 RMK A01 T01040016  RH  055%=      5-min Rain = 0
KPA1 200407Z 16009KT 10/02 A2981 RMK A01 T01040016  RH  055%=      5-min Rain = 0
KPA1 200408Z 15009KT 10/02 A2981 RMK A01 T01040016  RH  055%=      5-min Rain = 0
KPA1 200409Z 15009KT 10/02 A2981 RMK A01 T01040017  RH  055%=      5-min Rain = 0
KPA1 200410Z 15008KT 10/02 A2981 RMK A01 T01040017  RH  055%=      5-min Rain = 0
KPA1 200411Z 16009KT 10/02 A2981 RMK A01 T01040017  RH  055%=      5-min Rain = 0
KPA1 200412Z 16009KT 10/02 A2981 RMK A01 T01040017  RH  055%=      5-min Rain = 0
KPA1 200413Z 15009KT 10/02 A2981 RMK A01 T01040017  RH  055%=      5-min Rain = 0
KPA1 200414Z 15009KT 10/02 A2981 RMK A01 T01040018  RH  055%=      5-min Rain = 0
KPA1 200415Z 15009KT 10/02 A2981 RMK A01 T01040018  RH  055%=      5-min Rain = 0
KPA1 200416Z 16009KT 10/02 A2981 RMK A01 T01040018  RH  055%=      5-min Rain = 0
KPA1 200417Z 15009KT 10/02 A2981 RMK A01 T01040018  RH  055%=      5-min Rain = 0
KPA1 200418Z 15009KT 10/02 A2981 RMK A01 T01030018  RH  055%=      5-min Rain = 0
KPA1 200419Z 15009KT 10/02 A2981 RMK A01 T01030018  RH  056%=      5-min Rain = 0
KPA1 200420Z 15009KT 10/02 A298 RMK A01 T01020018  RH  056%=      5-min Rain = 0
KPA1 200421Z 15009KT 10/02 A298 RMK A01 T01020018  RH  056%=      5-min Rain = 0
KPA1 200422Z 15009KT 10/02 A298 RMK A01 T01020018  RH  056%=      5-min Rain = 0
KPA1 200423Z 15010KT 10/02 A298 RMK A01 T01010018  RH  056%=      5-min Rain = 0
KPA1 200424Z 15009KT 10/02 A298 RMK A01 T01010018  RH  056%=      5-min Rain = 0
KPA1 200425Z 15009KT 10/02 A298 RMK A01 T01010019  RH  057%=      5-min Rain = 0
KPA1 200426Z 15009KT 10/02 A298 RMK A01 T01010019  RH  057%=      5-min Rain = 0
KPA1 200427Z 15009KT 10/02 A298 RMK A01 T01000019  RH  057%=      5-min Rain = 0
KPA1 200428Z 15009KT 10/02 A298 RMK A01 T01000019  RH  057%=      5-min Rain = 0
KPA1 200429Z 15009KT 10/02 A298 RMK A01 T01000019  RH  057%=      5-min Rain = 0
KPA1 200430Z 15009KT 10/02 A298 RMK A01 T01000019  RH  057%=      5-min Rain = 0
KPA1 200431Z 15009KT 10/02 A298 RMK A01 T01000020  RH  057%=      5-min Rain = 0
KPA1 200432Z 15009KT 10/02 A298 RMK A01 T01000020  RH  057%=      5-min Rain = 0
KPA1 200433Z 15009KT 10/02 A298 RMK A01 T00990020  RH  058%=      5-min Rain = 0
KPA1 200434Z 15008KT 10/02 A298 RMK A01 T00990020  RH  058%=      5-min Rain = 0
KPA1 200435Z 15008KT 10/02 A298 RMK A01 T00990020  RH  058%=      5-min Rain = 0
KPA1 200436Z 15008KT 10/02 A298 RMK A01 T00980020  RH  058%=      5-min Rain = 0
KPA1 200437Z 15009KT 10/02 A298 RMK A01 T00980020  RH  058%=      5-min Rain = 0
KPA1 200438Z 15008KT 10/02 A298 RMK A01 T00970020  RH  058%=      5-min Rain = 0
KPA1 200439Z 15009KT 10/02 A298 RMK A01 T00970020  RH  059%=      5-min Rain = 0
KPA1 200440Z 15008KT 10/02 A298 RMK A01 T00970020  RH  059%=      5-min Rain = 0
KPA1 200441Z 15009KT 10/02 A298 RMK A01 T00960020  RH  059%=      5-min Rain = 0
KPA1 200442Z 15009KT 10/02 A298 RMK A01 T00960020  RH  059%=      5-min Rain = 0
KPA1 200443Z 15009KT 10/02 A298 RMK A01 T00950020  RH  059%=      5-min Rain = 0
KPA1 200444Z 15009KT 10/02 A298 RMK A01 T00960021  RH  060%=      5-min Rain = 0
KPA1 200445Z 15009KT 10/02 A298 RMK A01 T00950021  RH  060%=      5-min Rain = 0
KPA1 200446Z 15008KT 10/02 A298 RMK A01 T00950021  RH  060%=      5-min Rain = 0
KPA1 200447Z 15008KT 09/02 A298 RMK A01 T00930021  RH  060%=      5-min Rain = 0
KPA1 200448Z 14010KT 09/02 A298 RMK A01 T00930021  RH  061%=      5-min Rain = 0
KPA1 200449Z 15010KT 09/02 A298 RMK A01 T00930022  RH  061%=      5-min Rain = 0
KPA1 200450Z 14010KT 09/02 A298 RMK A01 T00930023  RH  061%=      5-min Rain = 0
KPA1 200451Z 14009KT 09/02 A298 RMK A01 T00940024  RH  061%=      5-min Rain = 0
KPA1 200452Z 15010KT 10/02 A298 RMK A01 T00950024  RH  061%=      5-min Rain = 0
KPA1 200453Z 14010KT 10/03 A298 RMK A01 T00960025  RH  061%=      5-min Rain = 0
KPA1 200454Z 14010KT 10/03 A298 RMK A01 T00960025  RH  061%=      5-min Rain = 0
KPA1 200455Z 15009KT 10/03 A298 RMK A01 T00960025  RH  061%=      5-min Rain = 0
KPA1 200456Z 14010KT 10/03 A298 RMK A01 T00960025  RH  061%=      5-min Rain = 0
KPA1 200457Z 15010KT 10/03 A298 RMK A01 T00960025  RH  061%=      5-min Rain = 0
KPA1 200458Z 15010KT 10/03 A298 RMK A01 T00960025  RH  061%=      5-min Rain = 0
KPA1 200459Z 15009KT 10/03 A298 RMK A01 T00950025  RH  061%=      5-min Rain = 0
KPA1 200500Z 15009KT 09/02 A298 RMK A01 T00940024  RH  062%=      5-min Rain = 0
KPA1 200501Z 15009KT 09/02 A298 RMK A01 T00930024  RH  062%=      5-min Rain = 0
KPA1 200502Z 15010KT 09/02 A298 RMK A01 T00920024  RH  062%=      5-min Rain = 0
KPA1 200503Z 15009KT 09/03 A298 RMK A01 T00930025  RH  063%=      5-min Rain = 0
KPA1 200504Z 15009KT 09/03 A298 RMK A01 T00930025  RH  062%=      5-min Rain = 0
KPA1 200505Z 15010KT 09/03 A298 RMK A01 T00930025  RH  062%=      5-min Rain = 0
KPA1 200506Z 15009KT 09/03 A298 RMK A01 T00930025  RH  063%=      5-min Rain = 0
KPA1 200507Z 15009KT 09/03 A298 RMK A01 T00930025  RH  063%=      5-min Rain = 0
KPA1 200508Z 16009KT 09/02 A298 RMK A01 T00920024  RH  063%=      5-min Rain = 0
KPA1 200509Z 15009KT 09/03 A298 RMK A01 T00920025  RH  063%=      5-min Rain = 0
KPA1 200510Z 15010KT 09/02 A298 RMK A01 T00910024  RH  063%=      5-min Rain = 0
KPA1 200511Z 15010KT 09/02 A298 RMK A01 T00910024  RH  063%=      5-min Rain = 0
KPA1 200512Z 15009KT 09/03 A298 RMK A01 T00910025  RH  063%=      5-min Rain = 0
KPA1 200513Z 15009KT 09/02 A298 RMK A01 T00910024  RH  063%=      5-min Rain = 0
KPA1 200514Z 15010KT 09/03 A298 RMK A01 T00910025  RH  063%=      5-min Rain = 0
KPA1 200515Z 15009KT 09/03 A298 RMK A01 T00910025  RH  063%=      5-min Rain = 0
KPA1 200516Z 15010KT 09/03 A298 RMK A01 T00910025  RH  063%=      5-min Rain = 0
KPA1 200517Z 15009KT 09/03 A298 RMK A01 T00910025  RH  063%=      5-min Rain = 0
KPA1 200518Z 16010KT 09/03 A298 RMK A01 T00910025  RH  063%=      5-min Rain = 0
KPA1 200519Z 15009KT 09/03 A298 RMK A01 T00920026  RH  063%=      5-min Rain = 0
KPA1 200520Z 16009KT 09/03 A298 RMK A01 T00920025  RH  063%=      5-min Rain = 0
KPA1 200521Z 16009KT 09/03 A298 RMK A01 T00920026  RH  063%=      5-min Rain = 0
KPA1 200522Z 16009KT 09/03 A298 RMK A01 T00920026  RH  063%=      5-min Rain = 0
KPA1 200523Z 16009KT 09/03 A298 RMK A01 T00920026  RH  063%=      5-min Rain = 0
KPA1 200524Z 16009KT 09/03 A298 RMK A01 T00920026  RH  063%=      5-min Rain = 0
KPA1 200525Z 16010KT 09/03 A298 RMK A01 T00920025  RH  063%=      5-min Rain = 0
KPA1 200526Z 16009KT 09/03 A298 RMK A01 T00910025  RH  063%=      5-min Rain = 0
KPA1 200527Z 16010KT 09/03 A298 RMK A01 T00910025  RH  064%=      5-min Rain = 0
KPA1 200528Z 16010KT 09/03 A2979 RMK A01 T00900025  RH  064%=      5-min Rain = 0
KPA1 200529Z 16009KT 09/03 A2979 RMK A01 T00900025  RH  064%=      5-min Rain = 0
KPA1 200530Z 16010KT 09/03 A2979 RMK A01 T00900025  RH  064%=      5-min Rain = 0
KPA1 200531Z 16009KT 09/03 A2979 RMK A01 T00900025  RH  064%=      5-min Rain = 0
KPA1 200532Z 16009KT 09/03 A2979 RMK A01 T00890025  RH  064%=      5-min Rain = 0
KPA1 200533Z 16009KT 09/03 A2979 RMK A01 T00890025  RH  064%=      5-min Rain = 0
KPA1 200534Z 16009KT 09/03 A2979 RMK A01 T00890025  RH  064%=      5-min Rain = 0
KPA1 200535Z 16009KT 09/03 A2979 RMK A01 T00890025  RH  064%=      5-min Rain = 0
KPA1 200536Z 16009KT 09/03 A2979 RMK A01 T00880025  RH  064%=      5-min Rain = 0
KPA1 200537Z 16009KT 09/02 A298 RMK A01 T00880024  RH  064%=      5-min Rain = 0
KPA1 200538Z 16009KT 09/02 A298 RMK A01 T00880024  RH  064%=      5-min Rain = 0
KPA1 200539Z 17009KT 09/03 A298 RMK A01 T00880025  RH  064%=      5-min Rain = 0
KPA1 200540Z 16009KT 09/02 A298 RMK A01 T00880024  RH  064%=      5-min Rain = 0
KPA1 200541Z 16009KT 09/02 A298 RMK A01 T00880024  RH  064%=      5-min Rain = 0
KPA1 200542Z 16009KT 09/02 A298 RMK A01 T00880024  RH  064%=      5-min Rain = 0
KPA1 200543Z 16008KT 09/03 A2979 RMK A01 T00880025  RH  065%=      5-min Rain = 0
KPA1 200544Z 16009KT 09/02 A2979 RMK A01 T00880024  RH  064%=      5-min Rain = 0
KPA1 200545Z 16008KT 09/02 A2979 RMK A01 T00880024  RH  064%=      5-min Rain = 0
KPA1 200546Z 16008KT 09/02 A2979 RMK A01 T00880024  RH  065%=      5-min Rain = 0
KPA1 200547Z 16009KT 09/02 A2979 RMK A01 T00880024  RH  064%=      5-min Rain = 0
KPA1 200548Z 16009KT 09/03 A2979 RMK A01 T00880025  RH  064%=      5-min Rain = 0
KPA1 200549Z 16009KT 09/03 A2979 RMK A01 T00900025  RH  064%=      5-min Rain = 0
KPA1 200550Z 16008KT 09/03 A2979 RMK A01 T00900025  RH  064%=      5-min Rain = 0
KPA1 200551Z 16008KT 09/03 A2979 RMK A01 T00910025  RH  063%=      5-min Rain = 0
KPA1 200552Z 16008KT 09/03 A2979 RMK A01 T00910025  RH  063%=      5-min Rain = 0
KPA1 200553Z 16008KT 09/03 A2979 RMK A01 T00910025  RH  063%=      5-min Rain = 0
KPA1 200554Z 16008KT 09/03 A2979 RMK A01 T00910025  RH  063%=      5-min Rain = 0
KPA1 200555Z 16008KT 09/03 A2979 RMK A01 T00920025  RH  063%=      5-min Rain = 0
KPA1 200556Z 16007KT 09/03 A2979 RMK A01 T00920025  RH  063%=      5-min Rain = 0
KPA1 200557Z 16007KT 09/02 A2979 RMK A01 T00910024  RH  063%=      5-min Rain = 0
KPA1 200558Z 16007KT 09/02 A2979 RMK A01 T00910024  RH  063%=      5-min Rain = 0
KPA1 200559Z 16007KT 09/02 A2979 RMK A01 T00910024  RH  063%=      5-min Rain = 0

Page generated in 0.0818 seconds.